| time (UTC) | temp F | wind direction | speed MPH | gust MPH | rain 1hr in | rain 24hr in | rain mn in | humidity % | barometer mb |
| 20260502170436 | 67 | 94 | 1.0 | 4.0 | 0.00 | 0.00 | 0.00 | 27 | 1021.8 |
| 20260502170330 | 67 | 123 | 1.0 | 4.0 | 0.00 | 0.00 | 0.00 | 29 | 1021.8 |
| 20260502170223 | 67 | 148 | 1.0 | 4.0 | 0.00 | 0.00 | 0.00 | 28 | 1021.9 |
| 20260502170118 | 67 | 144 | 1.0 | 4.0 | 0.00 | 0.00 | 0.00 | 28 | 1021.8 |
| 20260502164302 | 66 | 73 | 1.0 | 3.0 | 0.00 | 0.00 | 0.00 | 32 | 1021.8 |
| 20260502164242 | 66 | 73 | 1.0 | 3.0 | 0.00 | 0.00 | 0.00 | 31 | 1021.8 |
| 20260502164135 | 66 | 73 | 1.0 | 3.0 | 0.00 | 0.00 | 0.00 | 30 | 1021.8 |
| 20260502164033 | 66 | 271 | 1.0 | 3.0 | 0.00 | 0.00 | 0.00 | 28 | 1021.7 |
| 20260502163817 | 66 | 315 | 1.0 | 3.0 | 0.00 | 0.00 | 0.00 | 28 | 1021.8 |
| 20260502163710 | 66 | 249 | 1.0 | 4.0 | 0.00 | 0.00 | 0.00 | 32 | 1021.8 |
| 20260502163603 | 66 | 252 | 1.0 | 4.0 | 0.00 | 0.00 | 0.00 | 30 | 1021.9 |
| 20260502163502 | 66 | 236 | 1.0 | 4.0 | 0.00 | 0.00 | 0.00 | 31 | 1021.8 |
| 20260502163201 | 66 | 133 | 1.0 | 4.0 | 0.00 | 0.00 | 0.00 | 31 | 1021.8 |
| 20260502163140 | 66 | 137 | 1.0 | 4.0 | 0.00 | 0.00 | 0.00 | 30 | 1021.8 |
| 20260502163035 | 66 | 157 | 1.0 | 4.0 | 0.00 | 0.00 | 0.00 | 30 | 1021.9 |
| 20260502162802 | 66 | 236 | 0.0 | 3.0 | 0.00 | 0.00 | 0.00 | 28 | 1021.9 |
| 20260502162732 | 66 | 260 | 0.0 | 3.0 | 0.00 | 0.00 | 0.00 | 30 | 1021.8 |
| 20260502162626 | 66 | 130 | 0.0 | 4.0 | 0.00 | 0.00 | 0.00 | 31 | 1021.8 |
| 20260502162520 | 66 | 222 | 0.0 | 3.0 | 0.00 | 0.00 | 0.00 | 33 | 1021.8 |
| 20260502162415 | 66 | 99 | 0.0 | 1.0 | 0.00 | 0.00 | 0.00 | 33 | 1021.8 |
| 20260502162304 | 66 | 90 | 0.0 | 2.0 | 0.00 | 0.00 | 0.00 | 35 | 1021.8 |
| 20260502162201 | 66 | 101 | 0.0 | 2.0 | 0.00 | 0.00 | 0.00 | 32 | 1021.7 |
| 20260502162124 | 65 | 121 | 0.0 | 2.0 | 0.00 | 0.00 | 0.00 | 31 | 1021.7 |
| 20260502162024 | 65 | 156 | 0.0 | 2.0 | 0.00 | 0.00 | 0.00 | 30 | 1021.8 |
| 20260502161806 | 65 | 86 | 0.0 | 2.0 | 0.00 | 0.00 | 0.00 | 33 | 1021.7 |
| 20260502161702 | 65 | 90 | 0.0 | 2.0 | 0.00 | 0.00 | 0.00 | 32 | 1021.7 |
| 20260502161601 | 65 | 90 | 0.0 | 2.0 | 0.00 | 0.00 | 0.00 | 33 | 1021.8 |
| 20260502161400 | 64 | 76 | 0.0 | 1.0 | 0.00 | 0.00 | 0.00 | 33 | 1021.7 |
| 20260502161201 | 64 | 143 | 0.0 | 1.0 | 0.00 | 0.00 | 0.00 | 31 | 1021.7 |
| 20260502161102 | 64 | 142 | 0.0 | 1.0 | 0.00 | 0.00 | 0.00 | 31 | 1021.7 |
| 20260502160901 | 64 | 146 | 0.0 | 1.0 | 0.00 | 0.00 | 0.00 | 30 | 1021.7 |
| 20260502160840 | 64 | 146 | 0.0 | 1.0 | 0.00 | 0.00 | 0.00 | 30 | 1021.7 |
| 20260502160734 | 64 | 146 | 0.0 | 1.0 | 0.00 | 0.00 | 0.00 | 30 | 1021.7 |
| 20260502160628 | 64 | 184 | 0.0 | 1.0 | 0.00 | 0.00 | 0.00 | 31 | 1021.7 |
| 20260502160522 | 64 | 186 | 0.0 | 1.0 | 0.00 | 0.00 | 0.00 | 31 | 1021.7 |
| 20260502160301 | 64 | 185 | 0.0 | 1.0 | 0.00 | 0.00 | 0.00 | 35 | 1021.7 |
| 20260502160220 | 64 | 161 | 0.0 | 1.0 | 0.00 | 0.00 | 0.00 | 34 | 1021.7 |
| 20260502160114 | 64 | 235 | 0.0 | 1.0 | 0.00 | 0.00 | 0.00 | 32 | 1021.6 |
| 20260502152310 | 62 | 138 | 0.0 | 2.0 | 0.00 | 0.00 | 0.00 | 31 | 1021.8 |
| 20260502152203 | 62 | 161 | 0.0 | 2.0 | 0.00 | 0.00 | 0.00 | 32 | 1021.8 |
| 20260502152002 | 62 | 141 | 0.0 | 0.0 | 0.00 | 0.00 | 0.00 | 32 | 1021.9 |
| 20260502151902 | 62 | 142 | 0.0 | 0.0 | 0.00 | 0.00 | 0.00 | 33 | 1021.9 |
| 20260502151802 | 61 | 177 | 0.0 | 0.0 | 0.00 | 0.00 | 0.00 | 32 | 1021.8 |
| 20260502151701 | 61 | 177 | 0.0 | 0.0 | 0.00 | 0.00 | 0.00 | 33 | 1021.8 |
| 20260502151601 | 61 | 186 | 0.0 | 0.0 | 0.00 | 0.00 | 0.00 | 33 | 1021.9 |
| 20260502151502 | 61 | 144 | 0.0 | 0.0 | 0.00 | 0.00 | 0.00 | 34 | 1021.9 |
| 20260502151408 | 61 | 144 | 0.0 | 0.0 | 0.00 | 0.00 | 0.00 | 34 | 1021.8 |
| 20260502151302 | 61 | 144 | 0.0 | 0.0 | 0.00 | 0.00 | 0.00 | 35 | 1021.8 |
| 20260502151201 | 61 | 144 | 0.0 | 0.0 | 0.00 | 0.00 | 0.00 | 35 | 1021.8 |
| 20260502151101 | 60 | 144 | 0.0 | 0.0 | 0.00 | 0.00 | 0.00 | 37 | 1021.8 |
| 20260502151003 | 60 | 144 | 0.0 | 0.0 | 0.00 | 0.00 | 0.00 | 34 | 1021.9 |
| 20260502150902 | 60 | 144 | 0.0 | 0.0 | 0.00 | 0.00 | 0.00 | 35 | 1021.8 |
| 20260502150802 | 60 | 144 | 0.0 | 1.0 | 0.00 | 0.00 | 0.00 | 34 | 1021.8 |
| 20260502150701 | 60 | 144 | 0.0 | 1.0 | 0.00 | 0.00 | 0.00 | 35 | 1021.8 |
| 20260502150600 | 60 | 144 | 0.0 | 1.0 | 0.00 | 0.00 | 0.00 | 34 | 1021.8 |
| 20260502150501 | 60 | 144 | 0.0 | 1.0 | 0.00 | 0.00 | 0.00 | 34 | 1021.9 |
| 20260502150401 | 60 | 144 | 0.0 | 1.0 | 0.00 | 0.00 | 0.00 | 34 | 1021.8 |
| 20260502150330 | 60 | 144 | 0.0 | 1.0 | 0.00 | 0.00 | 0.00 | 34 | 1021.8 |
| 20260502150200 | 60 | 105 | 0.0 | 1.0 | 0.00 | 0.00 | 0.00 | 36 | 1021.8 |
| 20260502130600 | 39 | 207 | 0.0 | 0.0 | 0.00 | 0.00 | 0.00 | 69 | 1021.4 |
| 20260502130539 | 39 | 207 | 0.0 | 0.0 | 0.00 | 0.00 | 0.00 | 69 | 1021.4 |
| 20260502130430 | 39 | 209 | 0.0 | 0.0 | 0.00 | 0.00 | 0.00 | 69 | 1021.5 |
| 20260502130220 | 39 | 207 | 0.0 | 0.0 | 0.00 | 0.00 | 0.00 | 69 | 1021.5 |
| 20260502130111 | 39 | 207 | 0.0 | 0.0 | 0.00 | 0.00 | 0.00 | 69 | 1021.6 |
| 20260502123724 | 39 | 207 | 0.0 | 0.0 | 0.00 | 0.00 | 0.00 | 69 | 1021.5 |
| 20260502123613 | 39 | 207 | 0.0 | 0.0 | 0.00 | 0.00 | 0.00 | 69 | 1021.3 |
| 20260502123301 | 39 | 207 | 0.0 | 0.0 | 0.00 | 0.00 | 0.00 | 69 | 1021.3 |
| 20260502123139 | 39 | 207 | 0.0 | 0.0 | 0.00 | 0.00 | 0.00 | 69 | 1021.3 |
| 20260502123033 | 39 | 207 | 0.0 | 0.0 | 0.00 | 0.00 | 0.00 | 69 | 1021.3 |
| 20260502122922 | 39 | 207 | 0.0 | 0.0 | 0.00 | 0.00 | 0.00 | 69 | 1021.3 |
| 20260502122812 | 39 | 207 | 0.0 | 0.0 | 0.00 | 0.00 | 0.00 | 69 | 1021.3 |
| 20260502122601 | 39 | 207 | 0.0 | 0.0 | 0.00 | 0.00 | 0.00 | 69 | 1021.3 |
| 20260502122339 | 39 | 207 | 0.0 | 0.0 | 0.00 | 0.00 | 0.00 | 69 | 1021.3 |
| 20260502122232 | 39 | 207 | 0.0 | 0.0 | 0.00 | 0.00 | 0.00 | 69 | 1021.3 |
| 20260502122024 | 39 | 207 | 0.0 | 0.0 | 0.00 | 0.00 | 0.00 | 69 | 1021.2 |
| 20260502121907 | 39 | 207 | 0.0 | 0.0 | 0.00 | 0.00 | 0.00 | 69 | 1021.3 |
| 20260502121800 | 39 | 207 | 0.0 | 0.0 | 0.00 | 0.00 | 0.00 | 69 | 1021.3 |
| 20260502121601 | 39 | 207 | 0.0 | 0.0 | 0.00 | 0.00 | 0.00 | 69 | 1021.3 |
| 20260502121541 | 39 | 207 | 0.0 | 0.0 | 0.00 | 0.00 | 0.00 | 69 | 1021.3 |
| 20260502121325 | 39 | 207 | 0.0 | 0.0 | 0.00 | 0.00 | 0.00 | 69 | 1021.3 |
| 20260502121217 | 39 | 207 | 0.0 | 0.0 | 0.00 | 0.00 | 0.00 | 69 | 1021.3 |
| 20260502121108 | 39 | 207 | 0.0 | 0.0 | 0.00 | 0.00 | 0.00 | 69 | 1021.3 |
| 20260502121004 | 40 | 207 | 0.0 | 0.0 | 0.00 | 0.00 | 0.00 | 69 | 1021.3 |
| 20260502120900 | 40 | 207 | 0.0 | 0.0 | 0.00 | 0.00 | 0.00 | 69 | 1021.4 |
| 20260502120802 | 40 | 207 | 0.0 | 0.0 | 0.00 | 0.00 | 0.00 | 69 | 1021.4 |
| 20260502120702 | 40 | 207 | 0.0 | 0.0 | 0.00 | 0.00 | 0.00 | 69 | 1021.3 |
| 20260502120602 | 40 | 207 | 0.0 | 1.0 | 0.00 | 0.00 | 0.00 | 69 | 1021.3 |
| 20260502120501 | 40 | 207 | 0.0 | 1.0 | 0.00 | 0.00 | 0.00 | 69 | 1021.3 |
| 20260502120202 | 40 | 207 | 0.0 | 1.0 | 0.00 | 0.00 | 0.00 | 69 | 1021.3 |
| 20260502115901 | 40 | 207 | 0.0 | 1.0 | 0.00 | 0.00 | 0.00 | 69 | 1021.3 |
| 20260502115801 | 40 | 207 | 0.0 | 1.0 | 0.00 | 0.00 | 0.00 | 69 | 1021.3 |
| 20260502115741 | 40 | 207 | 0.0 | 1.0 | 0.00 | 0.00 | 0.00 | 69 | 1021.3 |
| 20260502115633 | 40 | 207 | 0.0 | 0.0 | 0.00 | 0.00 | 0.00 | 69 | 1021.3 |
| 20260502115525 | 40 | 207 | 0.0 | 0.0 | 0.00 | 0.00 | 0.00 | 69 | 1021.3 |
| 20260502115416 | 40 | 207 | 0.0 | 0.0 | 0.00 | 0.00 | 0.00 | 69 | 1021.3 |
| 20260502115305 | 40 | 207 | 0.0 | 0.0 | 0.00 | 0.00 | 0.00 | 69 | 1021.3 |
| 20260502115218 | 40 | 207 | 0.0 | 0.0 | 0.00 | 0.00 | 0.00 | 69 | 1021.3 |
| 20260502115111 | 40 | 207 | 0.0 | 0.0 | 0.00 | 0.00 | 0.00 | 69 | 1021.3 |
| 20260502115001 | 40 | 207 | 0.0 | 0.0 | 0.00 | 0.00 | 0.00 | 69 | 1021.3 |
| 20260502114900 | 40 | 207 | 0.0 | 0.0 | 0.00 | 0.00 | 0.00 | 69 | 1021.3 |
| 20260502114700 | 40 | 207 | 0.0 | 0.0 | 0.00 | 0.00 | 0.00 | 69 | 1021.3 |
| 20260502114401 | 40 | 207 | 0.0 | 1.0 | 0.00 | 0.00 | 0.00 | 69 | 1021.3 |
| 20260502114301 | 41 | 207 | 0.0 | 1.0 | 0.00 | 0.00 | 0.00 | 69 | 1021.4 |
| 20260502114200 | 41 | 207 | 0.0 | 1.0 | 0.00 | 0.00 | 0.00 | 69 | 1021.3 |
| 20260502114141 | 41 | 207 | 0.0 | 1.0 | 0.00 | 0.00 | 0.00 | 69 | 1021.3 |
| 20260502114031 | 41 | 207 | 0.0 | 1.0 | 0.00 | 0.00 | 0.00 | 69 | 1021.3 |
| 20260502113859 | 41 | 207 | 0.0 | 1.0 | 0.00 | 0.00 | 0.00 | 69 | 1021.4 |
| 20260502113831 | 41 | 207 | 0.0 | 1.0 | 0.00 | 0.00 | 0.00 | 69 | 1021.4 |
| 20260502113501 | 41 | 207 | 0.0 | 0.0 | 0.00 | 0.00 | 0.00 | 68 | 1021.3 |
| 20260502113400 | 41 | 207 | 0.0 | 1.0 | 0.00 | 0.00 | 0.00 | 68 | 1021.4 |
| 20260502113301 | 41 | 207 | 0.0 | 1.0 | 0.00 | 0.00 | 0.00 | 68 | 1021.5 |
| 20260502113241 | 41 | 207 | 0.0 | 1.0 | 0.00 | 0.00 | 0.00 | 68 | 1021.5 |
| 20260502113131 | 41 | 207 | 0.0 | 3.0 | 0.00 | 0.00 | 0.00 | 68 | 1021.4 |
| 20260502113025 | 41 | 207 | 0.0 | 3.0 | 0.00 | 0.00 | 0.00 | 68 | 1021.5 |
| 20260502112901 | 41 | 207 | 0.0 | 3.0 | 0.00 | 0.00 | 0.00 | 68 | 1021.4 |
| 20260502112801 | 41 | 207 | 0.0 | 3.0 | 0.00 | 0.00 | 0.00 | 68 | 1021.5 |
| 20260502112700 | 41 | 207 | 0.0 | 3.0 | 0.00 | 0.00 | 0.00 | 67 | 1021.3 |
| 20260502112601 | 41 | 207 | 0.0 | 3.0 | 0.00 | 0.00 | 0.00 | 67 | 1021.4 |
| 20260502112540 | 41 | 207 | 0.0 | 3.0 | 0.00 | 0.00 | 0.00 | 67 | 1021.4 |
| 20260502112430 | 41 | 207 | 0.0 | 3.0 | 0.00 | 0.00 | 0.00 | 67 | 1021.4 |
| 20260502112103 | 41 | 211 | 0.0 | 0.0 | 0.00 | 0.00 | 0.00 | 66 | 1021.5 |
| 20260502112001 | 41 | 210 | 0.0 | 0.0 | 0.00 | 0.00 | 0.00 | 66 | 1021.5 |
| 20260502111901 | 41 | 210 | 0.0 | 0.0 | 0.00 | 0.00 | 0.00 | 65 | 1021.5 |
| 20260502111841 | 41 | 210 | 0.0 | 0.0 | 0.00 | 0.00 | 0.00 | 65 | 1021.5 |
| 20260502111731 | 41 | 210 | 0.0 | 0.0 | 0.00 | 0.00 | 0.00 | 65 | 1021.5 |
| 20260502111620 | 41 | 210 | 0.0 | 0.0 | 0.00 | 0.00 | 0.00 | 65 | 1021.5 |
| 20260502111511 | 42 | 210 | 0.0 | 0.0 | 0.00 | 0.00 | 0.00 | 65 | 1021.4 |
| 20260502111401 | 42 | 210 | 0.0 | 0.0 | 0.00 | 0.00 | 0.00 | 65 | 1021.4 |
| 20260502111301 | 42 | 210 | 0.0 | 0.0 | 0.00 | 0.00 | 0.00 | 65 | 1021.4 |
| 20260502111201 | 42 | 210 | 0.0 | 0.0 | 0.00 | 0.00 | 0.00 | 65 | 1021.5 |
| 20260502111100 | 42 | 210 | 0.0 | 1.0 | 0.00 | 0.00 | 0.00 | 65 | 1021.4 |
| 20260502111021 | 42 | 210 | 0.0 | 1.0 | 0.00 | 0.00 | 0.00 | 65 | 1021.4 |
| 20260502110903 | 42 | 210 | 0.0 | 2.0 | 0.00 | 0.00 | 0.00 | 65 | 1021.5 |
| 20260502110802 | 42 | 210 | 0.0 | 2.0 | 0.00 | 0.00 | 0.00 | 65 | 1021.5 |
| 20260502110702 | 42 | 211 | 0.0 | 2.0 | 0.00 | 0.00 | 0.00 | 66 | 1021.5 |
| 20260502110502 | 42 | 210 | 1.0 | 2.0 | 0.00 | 0.00 | 0.00 | 66 | 1021.4 |
| 20260502110443 | 42 | 210 | 1.0 | 2.0 | 0.00 | 0.00 | 0.00 | 66 | 1021.5 |
| 20260502110333 | 42 | 210 | 1.0 | 2.0 | 0.00 | 0.00 | 0.00 | 66 | 1021.4 |
| 20260502110005 | 42 | 210 | 1.0 | 2.0 | 0.00 | 0.00 | 0.00 | 67 | 1021.4 |
| 20260502105900 | 41 | 210 | 1.0 | 2.0 | 0.00 | 0.00 | 0.00 | 67 | 1021.5 |
| 20260502105800 | 41 | 210 | 1.0 | 2.0 | 0.00 | 0.00 | 0.00 | 67 | 1021.4 |
| 20260502105743 | 41 | 210 | 1.0 | 2.0 | 0.00 | 0.00 | 0.00 | 67 | 1021.4 |
| 20260502105600 | 41 | 210 | 1.0 | 2.0 | 0.00 | 0.00 | 0.00 | 67 | 1021.4 |
| 20260502105500 | 41 | 210 | 1.0 | 2.0 | 0.00 | 0.00 | 0.00 | 68 | 1021.5 |
| 20260502105400 | 41 | 211 | 0.0 | 2.0 | 0.00 | 0.00 | 0.00 | 68 | 1021.4 |
| 20260502105300 | 41 | 211 | 0.0 | 2.0 | 0.00 | 0.00 | 0.00 | 68 | 1021.5 |
| 20260502105245 | 41 | 210 | 0.0 | 2.0 | 0.00 | 0.00 | 0.00 | 68 | 1021.5 |
| 20260502105134 | 41 | 211 | 0.0 | 2.0 | 0.00 | 0.00 | 0.00 | 68 | 1021.4 |
| 20260502105036 | 41 | 210 | 0.0 | 1.0 | 0.00 | 0.00 | 0.00 | 68 | 1021.3 |
| 20260502104859 | 41 | 210 | 0.0 | 1.0 | 0.00 | 0.00 | 0.00 | 69 | 1021.4 |
| 20260502104825 | 41 | 211 | 0.0 | 0.0 | 0.00 | 0.00 | 0.00 | 69 | 1021.4 |
| 20260502104715 | 41 | 210 | 0.0 | 1.0 | 0.00 | 0.00 | 0.00 | 69 | 1021.5 |
| 20260502104605 | 41 | 210 | 0.0 | 1.0 | 0.00 | 0.00 | 0.00 | 69 | 1021.5 |
| 20260502104500 | 41 | 211 | 0.0 | 1.0 | 0.00 | 0.00 | 0.00 | 69 | 1021.4 |
| 20260502104401 | 41 | 210 | 0.0 | 1.0 | 0.00 | 0.00 | 0.00 | 69 | 1021.4 |
| 20260502104344 | 42 | 210 | 0.0 | 1.0 | 0.00 | 0.00 | 0.00 | 69 | 1021.4 |
| 20260502104235 | 42 | 211 | 0.0 | 1.0 | 0.00 | 0.00 | 0.00 | 69 | 1021.4 |
| 20260502104125 | 42 | 211 | 0.0 | 1.0 | 0.00 | 0.00 | 0.00 | 69 | 1021.4 |
| 20260502104024 | 42 | 211 | 0.0 | 1.0 | 0.00 | 0.00 | 0.00 | 70 | 1021.4 |
| 20260502103905 | 42 | 211 | 0.0 | 1.0 | 0.00 | 0.00 | 0.00 | 69 | 1021.4 |
| 20260502103801 | 42 | 210 | 0.0 | 0.0 | 0.00 | 0.00 | 0.00 | 69 | 1021.4 |
| 20260502103645 | 42 | 210 | 0.0 | 0.0 | 0.00 | 0.00 | 0.00 | 69 | 1021.4 |
| 20260502103535 | 42 | 210 | 0.0 | 0.0 | 0.00 | 0.00 | 0.00 | 69 | 1021.4 |
| 20260502103400 | 42 | 211 | 0.0 | 0.0 | 0.00 | 0.00 | 0.00 | 69 | 1021.3 |
| 20260502103201 | 42 | 210 | 0.0 | 0.0 | 0.00 | 0.00 | 0.00 | 69 | 1021.3 |
| 20260502103102 | 42 | 210 | 0.0 | 0.0 | 0.00 | 0.00 | 0.00 | 68 | 1021.3 |
| 20260502103001 | 42 | 211 | 0.0 | 0.0 | 0.00 | 0.00 | 0.00 | 68 | 1021.4 |
| 20260502102943 | 42 | 211 | 0.0 | 0.0 | 0.00 | 0.00 | 0.00 | 68 | 1021.4 |
| 20260502102834 | 42 | 210 | 0.0 | 0.0 | 0.00 | 0.00 | 0.00 | 68 | 1021.3 |
| 20260502102723 | 42 | 210 | 0.0 | 0.0 | 0.00 | 0.00 | 0.00 | 68 | 1021.2 |
| 20260502102613 | 42 | 210 | 0.0 | 0.0 | 0.00 | 0.00 | 0.00 | 68 | 1021.3 |
| 20260502102503 | 43 | 210 | 0.0 | 1.0 | 0.00 | 0.00 | 0.00 | 68 | 1021.3 |
| 20260502102401 | 43 | 210 | 0.0 | 1.0 | 0.00 | 0.00 | 0.00 | 68 | 1021.3 |
| 20260502102300 | 43 | 210 | 0.0 | 1.0 | 0.00 | 0.00 | 0.00 | 68 | 1021.3 |
| 20260502102242 | 43 | 210 | 0.0 | 1.0 | 0.00 | 0.00 | 0.00 | 68 | 1021.3 |
| 20260502101913 | 43 | 210 | 0.0 | 1.0 | 0.00 | 0.00 | 0.00 | 68 | 1021.3 |
| 20260502101803 | 43 | 210 | 0.0 | 1.0 | 0.00 | 0.00 | 0.00 | 68 | 1021.3 |
| 20260502101700 | 43 | 210 | 0.0 | 1.0 | 0.00 | 0.00 | 0.00 | 68 | 1021.3 |
| 20260502101542 | 43 | 210 | 0.0 | 1.0 | 0.00 | 0.00 | 0.00 | 68 | 1021.2 |
| 20260502101433 | 43 | 210 | 0.0 | 1.0 | 0.00 | 0.00 | 0.00 | 68 | 1021.3 |
| 20260502101323 | 43 | 210 | 0.0 | 1.0 | 0.00 | 0.00 | 0.00 | 68 | 1021.3 |
| 20260502101213 | 43 | 210 | 0.0 | 1.0 | 0.00 | 0.00 | 0.00 | 68 | 1021.3 |
| 20260502101103 | 43 | 211 | 0.0 | 1.0 | 0.00 | 0.00 | 0.00 | 67 | 1021.3 |
| 20260502100901 | 43 | 211 | 0.0 | 1.0 | 0.00 | 0.00 | 0.00 | 67 | 1021.1 |
| 20260502100842 | 43 | 210 | 0.0 | 1.0 | 0.00 | 0.00 | 0.00 | 67 | 1021.1 |
| 20260502100733 | 43 | 210 | 0.0 | 1.0 | 0.00 | 0.00 | 0.00 | 67 | 1021.1 |
| 20260502100623 | 43 | 210 | 0.0 | 1.0 | 0.00 | 0.00 | 0.00 | 66 | 1021.1 |
| 20260502100512 | 43 | 211 | 0.0 | 0.0 | 0.00 | 0.00 | 0.00 | 66 | 1021.1 |
| 20260502100403 | 43 | 210 | 0.0 | 0.0 | 0.00 | 0.00 | 0.00 | 66 | 1021.1 |
| 20260502100142 | 44 | 211 | 0.0 | 0.0 | 0.00 | 0.00 | 0.00 | 66 | 1021.1 |
| 20260502091523 | 44 | 210 | 1.0 | 2.0 | 0.00 | 0.00 | 0.00 | 64 | 1021.1 |
| 20260502091412 | 44 | 210 | 1.0 | 2.0 | 0.00 | 0.00 | 0.00 | 64 | 1021.1 |
| 20260502091200 | 44 | 210 | 1.0 | 2.0 | 0.00 | 0.00 | 0.00 | 64 | 1021.1 |
| 20260502091100 | 44 | 210 | 1.0 | 2.0 | 0.00 | 0.00 | 0.00 | 64 | 1021.1 |
| 20260502091044 | 44 | 210 | 1.0 | 2.0 | 0.00 | 0.00 | 0.00 | 64 | 1021.1 |
| 20260502090822 | 44 | 210 | 1.0 | 3.0 | 0.00 | 0.00 | 0.00 | 65 | 1021.1 |
| 20260502090603 | 43 | 210 | 1.0 | 3.0 | 0.00 | 0.00 | 0.00 | 65 | 1021.3 |
| 20260502090500 | 43 | 210 | 1.0 | 3.0 | 0.00 | 0.00 | 0.00 | 65 | 1021.1 |
| 20260502090344 | 43 | 210 | 1.0 | 3.0 | 0.00 | 0.00 | 0.00 | 65 | 1021.2 |
| 20260502071501 | 47 | 241 | 0.0 | 2.0 | 0.00 | 0.00 | 0.00 | 61 | 1020.9 |
| 20260502071401 | 47 | 241 | 0.0 | 2.0 | 0.00 | 0.00 | 0.00 | 61 | 1020.9 |
| 20260502071302 | 47 | 241 | 0.0 | 2.0 | 0.00 | 0.00 | 0.00 | 61 | 1020.8 |
| 20260502071202 | 47 | 241 | 0.0 | 2.0 | 0.00 | 0.00 | 0.00 | 61 | 1020.8 |
| 20260502071101 | 47 | 241 | 0.0 | 2.0 | 0.00 | 0.00 | 0.00 | 61 | 1020.8 |
| 20260502070901 | 47 | 241 | 0.0 | 2.0 | 0.00 | 0.00 | 0.00 | 61 | 1020.8 |
| 20260502070802 | 47 | 241 | 0.0 | 2.0 | 0.00 | 0.00 | 0.00 | 61 | 1020.8 |
| 20260502070701 | 47 | 241 | 0.0 | 2.0 | 0.00 | 0.00 | 0.00 | 61 | 1020.8 |
| 20260502070527 | 47 | 241 | 0.0 | 2.0 | 0.00 | 0.00 | 0.00 | 61 | 1020.8 |
| 20260502070420 | 47 | 241 | 0.0 | 2.0 | 0.00 | 0.00 | 0.00 | 61 | 1020.8 |
| 20260502070312 | 47 | 241 | 1.0 | 2.0 | 0.00 | 0.00 | 0.00 | 61 | 1020.8 |
| 20260502070205 | 47 | 241 | 1.0 | 2.0 | 0.00 | 0.00 | 0.00 | 61 | 1020.9 |
| 20260502070101 | 47 | 241 | 1.0 | 2.0 | 0.00 | 0.00 | 0.00 | 61 | 1020.8 |
| 20260502070001 | 47 | 241 | 1.0 | 2.0 | 0.00 | 0.00 | 0.00 | 61 | 1021.0 |
| 20260502065901 | 47 | 241 | 1.0 | 2.0 | 0.00 | 0.00 | 0.00 | 61 | 1020.9 |
| 20260502065800 | 47 | 241 | 1.0 | 2.0 | 0.00 | 0.00 | 0.00 | 61 | 1021.0 |
| 20260502065700 | 47 | 241 | 1.0 | 2.0 | 0.00 | 0.00 | 0.00 | 61 | 1020.8 |
| 20260502065503 | 47 | 241 | 0.0 | 2.0 | 0.00 | 0.00 | 0.00 | 61 | 1020.9 |
| 20260502065401 | 47 | 241 | 0.0 | 2.0 | 0.00 | 0.00 | 0.00 | 61 | 1020.8 |
| 20260502065305 | 48 | 55 | 0.0 | 1.0 | 0.00 | 0.00 | 0.00 | 58 | 1020.8 |
| 20260502065038 | 48 | 58 | 0.0 | 1.0 | 0.00 | 0.00 | 0.00 | 59 | 1021.0 |
| 20260502064931 | 48 | 59 | 0.0 | 0.0 | 0.00 | 0.00 | 0.00 | 58 | 1021.0 |
| 20260502064826 | 48 | 59 | 0.0 | 1.0 | 0.00 | 0.00 | 0.00 | 57 | 1021.0 |
| 20260502064719 | 48 | 59 | 0.0 | 1.0 | 0.00 | 0.00 | 0.00 | 57 | 1021.0 |
| 20260502064613 | 48 | 59 | 0.0 | 1.0 | 0.00 | 0.00 | 0.00 | 57 | 1021.0 |
| 20260502064508 | 48 | 59 | 0.0 | 1.0 | 0.00 | 0.00 | 0.00 | 57 | 1021.0 |
| 20260502064401 | 48 | 59 | 0.0 | 1.0 | 0.00 | 0.00 | 0.00 | 57 | 1021.0 |
| 20260502064300 | 49 | 59 | 0.0 | 1.0 | 0.00 | 0.00 | 0.00 | 57 | 1020.9 |
| 20260502064200 | 49 | 59 | 0.0 | 1.0 | 0.00 | 0.00 | 0.00 | 57 | 1021.0 |
| 20260502064100 | 49 | 59 | 0.0 | 1.0 | 0.00 | 0.00 | 0.00 | 57 | 1021.0 |
| 20260502064000 | 49 | 59 | 0.0 | 1.0 | 0.00 | 0.00 | 0.00 | 57 | 1021.0 |
| 20260502063818 | 49 | 282 | 0.0 | 1.0 | 0.00 | 0.00 | 0.00 | 57 | 1021.0 |
| 20260502063712 | 49 | 282 | 0.0 | 1.0 | 0.00 | 0.00 | 0.00 | 57 | 1021.0 |
| 20260502063605 | 49 | 282 | 0.0 | 1.0 | 0.00 | 0.00 | 0.00 | 57 | 1021.0 |
| 20260502063501 | 49 | 282 | 0.0 | 1.0 | 0.00 | 0.00 | 0.00 | 57 | 1020.9 |
| 20260502063402 | 49 | 281 | 0.0 | 1.0 | 0.00 | 0.00 | 0.00 | 57 | 1021.0 |
| 20260502063302 | 48 | 281 | 0.0 | 1.0 | 0.00 | 0.00 | 0.00 | 58 | 1021.0 |
| 20260502063201 | 48 | 259 | 0.0 | 1.0 | 0.00 | 0.00 | 0.00 | 58 | 1021.0 |
| 20260502063101 | 48 | 259 | 0.0 | 1.0 | 0.00 | 0.00 | 0.00 | 58 | 1020.9 |
| 20260502063001 | 48 | 259 | 0.0 | 1.0 | 0.00 | 0.00 | 0.00 | 58 | 1021.0 |
| 20260502062800 | 48 | 259 | 0.0 | 1.0 | 0.00 | 0.00 | 0.00 | 59 | 1021.0 |
| 20260502062621 | 48 | 250 | 0.0 | 1.0 | 0.00 | 0.00 | 0.00 | 59 | 1021.0 |
| 20260502062515 | 48 | 249 | 0.0 | 1.0 | 0.00 | 0.00 | 0.00 | 59 | 1021.0 |
| 20260502062411 | 48 | 249 | 0.0 | 1.0 | 0.00 | 0.00 | 0.00 | 59 | 1021.1 |
| 20260502062306 | 47 | 249 | 0.0 | 1.0 | 0.00 | 0.00 | 0.00 | 60 | 1021.0 |
| 20260502062200 | 47 | 249 | 0.0 | 1.0 | 0.00 | 0.00 | 0.00 | 60 | 1021.0 |
| 20260502062107 | 47 | 249 | 0.0 | 1.0 | 0.00 | 0.00 | 0.00 | 60 | 1021.0 |
| 20260502061901 | 47 | 249 | 0.0 | 0.0 | 0.00 | 0.00 | 0.00 | 61 | 1021.0 |
| 20260502061645 | 47 | 249 | 0.0 | 0.0 | 0.00 | 0.00 | 0.00 | 61 | 1021.0 |
| 20260502061432 | 47 | 249 | 0.0 | 0.0 | 0.00 | 0.00 | 0.00 | 62 | 1021.0 |
| 20260502061219 | 47 | 249 | 0.0 | 1.0 | 0.00 | 0.00 | 0.00 | 61 | 1021.0 |
| 20260502061114 | 47 | 249 | 0.0 | 1.0 | 0.00 | 0.00 | 0.00 | 61 | 1021.0 |
| 20260502061009 | 47 | 249 | 0.0 | 1.0 | 0.00 | 0.00 | 0.00 | 61 | 1021.0 |
| 20260502060902 | 47 | 249 | 0.0 | 1.0 | 0.00 | 0.00 | 0.00 | 60 | 1021.0 |
| 20260502060801 | 47 | 249 | 0.0 | 1.0 | 0.00 | 0.00 | 0.00 | 60 | 1021.0 |
| 20260502060701 | 47 | 249 | 0.0 | 1.0 | 0.00 | 0.00 | 0.00 | 60 | 1021.0 |
| 20260502060600 | 47 | 249 | 0.0 | 1.0 | 0.00 | 0.00 | 0.00 | 60 | 1021.0 |
| 20260502060544 | 47 | 249 | 0.0 | 1.0 | 0.00 | 0.00 | 0.00 | 60 | 1021.0 |
| 20260502060400 | 47 | 249 | 0.0 | 1.0 | 0.00 | 0.00 | 0.00 | 60 | 1021.0 |
| 20260502060340 | 47 | 249 | 0.0 | 1.0 | 0.00 | 0.00 | 0.00 | 60 | 1021.0 |
| 20260502060210 | 48 | 249 | 0.0 | 1.0 | 0.00 | 0.00 | 0.00 | 59 | 1020.9 |
| 20260502060104 | 48 | 249 | 0.0 | 1.0 | 0.00 | 0.00 | 0.00 | 59 | 1021.0 |
| 20260502060007 | 48 | 249 | 0.0 | 1.0 | 0.00 | 0.00 | 0.00 | 58 | 1020.9 |
| 20260502055904 | 48 | 249 | 0.0 | 1.0 | 0.00 | 0.00 | 0.00 | 59 | 1021.0 |
| 20260502055802 | 48 | 261 | 0.0 | 1.0 | 0.00 | 0.00 | 0.00 | 58 | 1020.9 |
| 20260502055746 | 48 | 94 | 0.0 | 1.0 | 0.00 | 0.00 | 0.00 | 58 | 1020.9 |
| 20260502055639 | 48 | 94 | 0.0 | 0.0 | 0.00 | 0.00 | 0.00 | 57 | 1021.0 |
| 20260502055533 | 48 | 94 | 0.0 | 0.0 | 0.00 | 0.00 | 0.00 | 57 | 1020.9 |
| 20260502055428 | 48 | 94 | 0.0 | 0.0 | 0.00 | 0.00 | 0.00 | 57 | 1020.9 |
| 20260502055216 | 48 | 94 | 0.0 | 0.0 | 0.00 | 0.00 | 0.00 | 57 | 1020.8 |
| 20260502055109 | 49 | 94 | 0.0 | 0.0 | 0.00 | 0.00 | 0.00 | 56 | 1020.8 |
| 20260502055004 | 49 | 94 | 0.0 | 0.0 | 0.00 | 0.00 | 0.00 | 56 | 1020.8 |
| 20260502054902 | 49 | 94 | 0.0 | 0.0 | 0.00 | 0.00 | 0.00 | 55 | 1020.9 |
| 20260502054602 | 49 | 94 | 0.0 | 0.0 | 0.00 | 0.00 | 0.00 | 55 | 1020.8 |
| 20260502054502 | 50 | 94 | 0.0 | 0.0 | 0.00 | 0.00 | 0.00 | 55 | 1020.7 |
| 20260502054403 | 50 | 94 | 0.0 | 0.0 | 0.00 | 0.00 | 0.00 | 54 | 1020.8 |
| 20260502054208 | 50 | 94 | 0.0 | 1.0 | 0.00 | 0.00 | 0.00 | 54 | 1020.8 |
| 20260502053903 | 50 | 94 | 0.0 | 1.0 | 0.00 | 0.00 | 0.00 | 54 | 1020.7 |
| 20260502053742 | 50 | 94 | 0.0 | 1.0 | 0.00 | 0.00 | 0.00 | 54 | 1020.8 |
| 20260502053636 | 50 | 94 | 0.0 | 1.0 | 0.00 | 0.00 | 0.00 | 54 | 1020.7 |
| 20260502053529 | 50 | 94 | 0.0 | 1.0 | 0.00 | 0.00 | 0.00 | 54 | 1020.8 |
| 20260502053317 | 50 | 94 | 0.0 | 0.0 | 0.00 | 0.00 | 0.00 | 55 | 1020.8 |
| 20260502053212 | 50 | 94 | 0.0 | 0.0 | 0.00 | 0.00 | 0.00 | 55 | 1020.8 |
| 20260502053106 | 50 | 94 | 0.0 | 0.0 | 0.00 | 0.00 | 0.00 | 56 | 1020.8 |
| 20260502053004 | 50 | 94 | 0.0 | 0.0 | 0.00 | 0.00 | 0.00 | 56 | 1020.8 |
| 20260502052902 | 49 | 94 | 0.0 | 0.0 | 0.00 | 0.00 | 0.00 | 56 | 1020.8 |
| 20260502052802 | 49 | 94 | 0.0 | 0.0 | 0.00 | 0.00 | 0.00 | 56 | 1020.7 |
| 20260502052703 | 49 | 94 | 0.0 | 0.0 | 0.00 | 0.00 | 0.00 | 56 | 1020.8 |
| 20260502052602 | 49 | 94 | 0.0 | 0.0 | 0.00 | 0.00 | 0.00 | 55 | 1020.8 |
| 20260502052503 | 49 | 94 | 0.0 | 0.0 | 0.00 | 0.00 | 0.00 | 55 | 1020.8 |
| 20260502052402 | 50 | 94 | 0.0 | 0.0 | 0.00 | 0.00 | 0.00 | 55 | 1020.9 |
| 20260502052333 | 50 | 94 | 0.0 | 0.0 | 0.00 | 0.00 | 0.00 | 55 | 1020.9 |
| 20260502052228 | 50 | 94 | 0.0 | 0.0 | 0.00 | 0.00 | 0.00 | 55 | 1020.8 |
| 20260502052002 | 50 | 94 | 0.0 | 0.0 | 0.00 | 0.00 | 0.00 | 54 | 1020.8 |
| 20260502051926 | 50 | 94 | 0.0 | 0.0 | 0.00 | 0.00 | 0.00 | 54 | 1020.8 |
| 20260502051820 | 50 | 94 | 0.0 | 0.0 | 0.00 | 0.00 | 0.00 | 54 | 1020.8 |
| 20260502051714 | 51 | 94 | 0.0 | 0.0 | 0.00 | 0.00 | 0.00 | 54 | 1020.8 |
| 20260502051607 | 51 | 94 | 0.0 | 0.0 | 0.00 | 0.00 | 0.00 | 53 | 1020.8 |
| 20260502051502 | 51 | 94 | 0.0 | 0.0 | 0.00 | 0.00 | 0.00 | 53 | 1020.8 |
| 20260502051401 | 51 | 94 | 0.0 | 0.0 | 0.00 | 0.00 | 0.00 | 52 | 1020.8 |
| 20260502051303 | 51 | 94 | 0.0 | 0.0 | 0.00 | 0.00 | 0.00 | 52 | 1020.8 |
| 20260502051202 | 51 | 94 | 0.0 | 0.0 | 0.00 | 0.00 | 0.00 | 52 | 1020.8 |
| 20260502051143 | 51 | 94 | 0.0 | 0.0 | 0.00 | 0.00 | 0.00 | 52 | 1020.8 |
| 20260502051039 | 51 | 94 | 0.0 | 0.0 | 0.00 | 0.00 | 0.00 | 51 | 1020.8 |
| 20260502050932 | 52 | 94 | 0.0 | 0.0 | 0.00 | 0.00 | 0.00 | 51 | 1020.8 |
| 20260502050826 | 51 | 94 | 0.0 | 0.0 | 0.00 | 0.00 | 0.00 | 51 | 1020.8 |
| 20260502050719 | 51 | 96 | 0.0 | 0.0 | 0.00 | 0.00 | 0.00 | 51 | 1020.8 |
| 20260502050508 | 51 | 96 | 0.0 | 0.0 | 0.00 | 0.00 | 0.00 | 52 | 1020.8 |
| 20260502050403 | 51 | 96 | 0.0 | 0.0 | 0.00 | 0.00 | 0.00 | 52 | 1020.8 |
| 20260502050303 | 51 | 96 | 0.0 | 0.0 | 0.00 | 0.00 | 0.00 | 52 | 1020.8 |
| 20260502050202 | 51 | 96 | 0.0 | 0.0 | 0.00 | 0.00 | 0.00 | 52 | 1020.8 |
| 20260502050107 | 51 | 97 | 0.0 | 0.0 | 0.00 | 0.00 | 0.00 | 52 | 1020.8 |
| 20260502045938 | 51 | 97 | 0.0 | 0.0 | 0.00 | 0.00 | 0.00 | 52 | 1020.8 |
| 20260502045831 | 51 | 97 | 0.0 | 0.0 | 0.00 | 0.00 | 0.00 | 52 | 1020.7 |
| 20260502045726 | 51 | 97 | 0.0 | 0.0 | 0.00 | 0.00 | 0.00 | 52 | 1020.7 |
| 20260502045619 | 51 | 97 | 0.0 | 0.0 | 0.00 | 0.00 | 0.00 | 52 | 1020.8 |
| 20260502045513 | 51 | 97 | 0.0 | 0.0 | 0.00 | 0.00 | 0.00 | 52 | 1020.8 |
| 20260502045407 | 51 | 97 | 0.0 | 0.0 | 0.00 | 0.00 | 0.00 | 51 | 1020.7 |
| 20260502045305 | 51 | 97 | 0.0 | 0.0 | 0.00 | 0.00 | 0.00 | 51 | 1020.7 |
| 20260502045202 | 52 | 97 | 0.0 | 0.0 | 0.00 | 0.00 | 0.00 | 51 | 1020.7 |
| 20260502045102 | 52 | 97 | 0.0 | 0.0 | 0.00 | 0.00 | 0.00 | 51 | 1020.7 |
| 20260502045004 | 52 | 97 | 0.0 | 0.0 | 0.00 | 0.00 | 0.00 | 51 | 1020.7 |
| 20260502044902 | 52 | 97 | 0.0 | 0.0 | 0.00 | 0.00 | 0.00 | 51 | 1020.7 |
| 20260502044803 | 52 | 97 | 0.0 | 0.0 | 0.00 | 0.00 | 0.00 | 52 | 1020.7 |
| 20260502044702 | 52 | 97 | 0.0 | 0.0 | 0.00 | 0.00 | 0.00 | 51 | 1020.7 |
| 20260502044641 | 52 | 97 | 0.0 | 0.0 | 0.00 | 0.00 | 0.00 | 51 | 1020.7 |
| 20260502044536 | 52 | 97 | 0.0 | 0.0 | 0.00 | 0.00 | 0.00 | 51 | 1020.8 |
| 20260502044218 | 52 | 97 | 0.0 | 0.0 | 0.00 | 0.00 | 0.00 | 52 | 1020.8 |
| 20260502044112 | 52 | 97 | 0.0 | 0.0 | 0.00 | 0.00 | 0.00 | 51 | 1020.8 |
| 20260502044006 | 52 | 97 | 0.0 | 0.0 | 0.00 | 0.00 | 0.00 | 51 | 1020.8 |
| 20260502043903 | 52 | 97 | 0.0 | 0.0 | 0.00 | 0.00 | 0.00 | 51 | 1020.7 |
| 20260502043803 | 52 | 97 | 0.0 | 0.0 | 0.00 | 0.00 | 0.00 | 50 | 1020.8 |
| 20260502043703 | 52 | 97 | 0.0 | 0.0 | 0.00 | 0.00 | 0.00 | 50 | 1020.8 |
| 20260502043602 | 52 | 97 | 0.0 | 0.0 | 0.00 | 0.00 | 0.00 | 50 | 1020.8 |
| 20260502043542 | 52 | 97 | 0.0 | 0.0 | 0.00 | 0.00 | 0.00 | 50 | 1020.8 |
| 20260502043329 | 53 | 97 | 0.0 | 1.0 | 0.00 | 0.00 | 0.00 | 49 | 1020.7 |
| 20260502043223 | 53 | 97 | 0.0 | 1.0 | 0.00 | 0.00 | 0.00 | 49 | 1020.7 |
| 20260502043004 | 53 | 97 | 0.0 | 1.0 | 0.00 | 0.00 | 0.00 | 49 | 1020.7 |
| 20260502042802 | 53 | 97 | 0.0 | 1.0 | 0.00 | 0.00 | 0.00 | 49 | 1020.7 |
| 20260502042702 | 53 | 97 | 0.0 | 1.0 | 0.00 | 0.00 | 0.00 | 48 | 1020.8 |
| 20260502042602 | 53 | 97 | 0.0 | 1.0 | 0.00 | 0.00 | 0.00 | 48 | 1020.8 |
| 20260502042503 | 53 | 97 | 0.0 | 1.0 | 0.00 | 0.00 | 0.00 | 48 | 1020.7 |
| 20260502042403 | 53 | 98 | 0.0 | 0.0 | 0.00 | 0.00 | 0.00 | 49 | 1020.7 |
| 20260502042305 | 53 | 107 | 0.0 | 0.0 | 0.00 | 0.00 | 0.00 | 49 | 1020.7 |
| 20260502042115 | 53 | 107 | 0.0 | 0.0 | 0.00 | 0.00 | 0.00 | 50 | 1020.8 |
| 20260502042010 | 53 | 107 | 0.0 | 0.0 | 0.00 | 0.00 | 0.00 | 50 | 1020.7 |
| 20260502041903 | 53 | 113 | 0.0 | 0.0 | 0.00 | 0.00 | 0.00 | 50 | 1020.6 |
| 20260502041802 | 53 | 113 | 0.0 | 0.0 | 0.00 | 0.00 | 0.00 | 51 | 1020.7 |
| 20260502041702 | 53 | 113 | 0.0 | 0.0 | 0.00 | 0.00 | 0.00 | 51 | 1020.7 |
| 20260502041601 | 53 | 113 | 0.0 | 0.0 | 0.00 | 0.00 | 0.00 | 52 | 1020.7 |
| 20260502041545 | 53 | 113 | 0.0 | 0.0 | 0.00 | 0.00 | 0.00 | 52 | 1020.7 |
| 20260502041228 | 52 | 113 | 0.0 | 0.0 | 0.00 | 0.00 | 0.00 | 52 | 1020.7 |
| 20260502041121 | 53 | 88 | 0.0 | 0.0 | 0.00 | 0.00 | 0.00 | 52 | 1020.7 |
| 20260502041029 | 53 | 88 | 0.0 | 0.0 | 0.00 | 0.00 | 0.00 | 52 | 1020.7 |
| 20260502040903 | 53 | 88 | 0.0 | 0.0 | 0.00 | 0.00 | 0.00 | 52 | 1020.6 |
| 20260502040802 | 53 | 88 | 0.0 | 0.0 | 0.00 | 0.00 | 0.00 | 52 | 1020.6 |
| 20260502040701 | 53 | 88 | 0.0 | 0.0 | 0.00 | 0.00 | 0.00 | 52 | 1020.5 |
| 20260502040602 | 53 | 88 | 0.0 | 0.0 | 0.00 | 0.00 | 0.00 | 52 | 1020.6 |
| 20260502040502 | 53 | 88 | 0.0 | 0.0 | 0.00 | 0.00 | 0.00 | 52 | 1020.6 |
| 20260502040402 | 53 | 87 | 0.0 | 0.0 | 0.00 | 0.00 | 0.00 | 53 | 1020.5 |
| 20260502040202 | 53 | 87 | 0.0 | 1.0 | 0.00 | 0.00 | 0.00 | 53 | 1020.5 |
| 20260502040044 | 53 | 89 | 0.0 | 1.0 | 0.00 | 0.00 | 0.00 | 53 | 1020.5 |
| 20260502035726 | 53 | 88 | 0.0 | 1.0 | 0.00 | 0.00 | 0.00 | 53 | 1020.5 |
| 20260502035620 | 53 | 89 | 0.0 | 1.0 | 0.00 | 0.00 | 0.00 | 53 | 1020.5 |
| 20260502035513 | 53 | 88 | 0.0 | 1.0 | 0.00 | 0.00 | 0.00 | 54 | 1020.5 |
| 20260502035408 | 53 | 109 | 0.0 | 1.0 | 0.00 | 0.00 | 0.00 | 54 | 1020.4 |
| 20260502035301 | 53 | 109 | 0.0 | 1.0 | 0.00 | 0.00 | 0.00 | 54 | 1020.4 |
| 20260502035202 | 53 | 109 | 0.0 | 1.0 | 0.00 | 0.00 | 0.00 | 54 | 1020.4 |
| 20260502035103 | 53 | 271 | 0.0 | 1.0 | 0.00 | 0.00 | 0.00 | 54 | 1020.4 |
| 20260502035003 | 53 | 271 | 0.0 | 0.0 | 0.00 | 0.00 | 0.00 | 54 | 1020.4 |
| 20260502034902 | 53 | 271 | 0.0 | 0.0 | 0.00 | 0.00 | 0.00 | 54 | 1020.4 |
| 20260502034801 | 53 | 271 | 0.0 | 0.0 | 0.00 | 0.00 | 0.00 | 54 | 1020.4 |
| 20260502034612 | 53 | 271 | 0.0 | 0.0 | 0.00 | 0.00 | 0.00 | 54 | 1020.3 |
| 20260502034505 | 53 | 271 | 0.0 | 0.0 | 0.00 | 0.00 | 0.00 | 54 | 1020.4 |
| 20260502034403 | 53 | 271 | 0.0 | 0.0 | 0.00 | 0.00 | 0.00 | 54 | 1020.3 |
| 20260502034303 | 53 | 271 | 0.0 | 0.0 | 0.00 | 0.00 | 0.00 | 54 | 1020.4 |
| 20260502034202 | 53 | 271 | 0.0 | 0.0 | 0.00 | 0.00 | 0.00 | 53 | 1020.3 |
| 20260502034102 | 53 | 271 | 0.0 | 0.0 | 0.00 | 0.00 | 0.00 | 53 | 1020.3 |
| 20260502034042 | 53 | 271 | 0.0 | 0.0 | 0.00 | 0.00 | 0.00 | 53 | 1020.3 |
| 20260502033935 | 53 | 271 | 0.0 | 0.0 | 0.00 | 0.00 | 0.00 | 53 | 1020.3 |
| 20260502033830 | 53 | 271 | 0.0 | 0.0 | 0.00 | 0.00 | 0.00 | 53 | 1020.3 |
| 20260502033618 | 53 | 271 | 0.0 | 0.0 | 0.00 | 0.00 | 0.00 | 52 | 1020.3 |
| 20260502033511 | 54 | 271 | 0.0 | 0.0 | 0.00 | 0.00 | 0.00 | 52 | 1020.3 |
| 20260502033303 | 54 | 271 | 0.0 | 0.0 | 0.00 | 0.00 | 0.00 | 52 | 1020.2 |
| 20260502033202 | 54 | 271 | 0.0 | 0.0 | 0.00 | 0.00 | 0.00 | 52 | 1020.2 |
| 20260502033103 | 53 | 271 | 0.0 | 0.0 | 0.00 | 0.00 | 0.00 | 53 | 1020.2 |
| 20260502033004 | 53 | 270 | 0.0 | 0.0 | 0.00 | 0.00 | 0.00 | 53 | 1020.2 |
| 20260502032903 | 54 | 270 | 0.0 | 0.0 | 0.00 | 0.00 | 0.00 | 53 | 1020.2 |
| 20260502032802 | 53 | 270 | 0.0 | 0.0 | 0.00 | 0.00 | 0.00 | 52 | 1020.2 |
| 20260502032702 | 53 | 270 | 0.0 | 0.0 | 0.00 | 0.00 | 0.00 | 52 | 1020.1 |
| 20260502032602 | 54 | 270 | 0.0 | 0.0 | 0.00 | 0.00 | 0.00 | 52 | 1020.2 |
| 20260502032503 | 54 | 270 | 0.0 | 0.0 | 0.00 | 0.00 | 0.00 | 51 | 1020.1 |
| 20260502032402 | 54 | 270 | 0.0 | 0.0 | 0.00 | 0.00 | 0.00 | 51 | 1020.1 |
| 20260502032305 | 54 | 270 | 0.0 | 0.0 | 0.00 | 0.00 | 0.00 | 51 | 1020.1 |
| 20260502032202 | 54 | 270 | 0.0 | 0.0 | 0.00 | 0.00 | 0.00 | 51 | 1020.1 |
| 20260502032139 | 54 | 270 | 0.0 | 0.0 | 0.00 | 0.00 | 0.00 | 51 | 1020.1 |
| 20260502031927 | 54 | 270 | 0.0 | 0.0 | 0.00 | 0.00 | 0.00 | 51 | 1020.1 |
| 20260502031821 | 54 | 270 | 0.0 | 0.0 | 0.00 | 0.00 | 0.00 | 51 | 1020.0 |
| 20260502031401 | 55 | 270 | 0.0 | 0.0 | 0.00 | 0.00 | 0.00 | 50 | 1019.9 |
| 20260502031302 | 55 | 270 | 0.0 | 0.0 | 0.00 | 0.00 | 0.00 | 50 | 1020.0 |
| 20260502031202 | 55 | 270 | 0.0 | 0.0 | 0.00 | 0.00 | 0.00 | 51 | 1019.9 |
| 20260502031145 | 55 | 270 | 0.0 | 0.0 | 0.00 | 0.00 | 0.00 | 51 | 1019.9 |
| 20260502031040 | 55 | 270 | 0.0 | 0.0 | 0.00 | 0.00 | 0.00 | 50 | 1019.9 |
| 20260502030802 | 55 | 270 | 0.0 | 0.0 | 0.00 | 0.00 | 0.00 | 50 | 1019.9 |
| 20260502030702 | 55 | 270 | 0.0 | 0.0 | 0.00 | 0.00 | 0.00 | 49 | 1019.9 |
| 20260502030535 | 55 | 270 | 0.0 | 0.0 | 0.00 | 0.00 | 0.00 | 50 | 1019.9 |
| 20260502030430 | 56 | 270 | 0.0 | 0.0 | 0.00 | 0.00 | 0.00 | 49 | 1019.8 |
| 20260502030324 | 56 | 270 | 0.0 | 0.0 | 0.00 | 0.00 | 0.00 | 49 | 1019.8 |
| 20260502030217 | 56 | 270 | 0.0 | 0.0 | 0.00 | 0.00 | 0.00 | 49 | 1019.8 |
| 20260502030112 | 56 | 270 | 0.0 | 0.0 | 0.00 | 0.00 | 0.00 | 48 | 1019.8 |
| 20260502030007 | 56 | 270 | 0.0 | 0.0 | 0.00 | 0.00 | 0.00 | 48 | 1019.8 |
| 20260502025902 | 56 | 270 | 0.0 | 0.0 | 0.00 | 0.00 | 0.00 | 48 | 1019.8 |
| 20260502025802 | 56 | 270 | 0.0 | 0.0 | 0.00 | 0.00 | 0.00 | 48 | 1019.8 |
| 20260502025702 | 56 | 270 | 0.0 | 0.0 | 0.00 | 0.00 | 0.00 | 48 | 1019.7 |
| 20260502025401 | 57 | 270 | 0.0 | 0.0 | 0.00 | 0.00 | 0.00 | 47 | 1019.7 |
| 20260502025301 | 57 | 270 | 0.0 | 0.0 | 0.00 | 0.00 | 0.00 | 47 | 1019.7 |
| 20260502025202 | 57 | 270 | 0.0 | 0.0 | 0.00 | 0.00 | 0.00 | 47 | 1019.8 |
| 20260502025145 | 57 | 270 | 0.0 | 0.0 | 0.00 | 0.00 | 0.00 | 47 | 1019.8 |
| 20260502025041 | 57 | 270 | 0.0 | 0.0 | 0.00 | 0.00 | 0.00 | 47 | 1019.7 |
| 20260502024934 | 57 | 270 | 0.0 | 0.0 | 0.00 | 0.00 | 0.00 | 47 | 1019.8 |
| 20260502024828 | 57 | 270 | 0.0 | 0.0 | 0.00 | 0.00 | 0.00 | 47 | 1019.7 |
| 20260502024722 | 57 | 271 | 0.0 | 1.0 | 0.00 | 0.00 | 0.00 | 47 | 1019.7 |
| 20260502024615 | 57 | 252 | 0.0 | 1.0 | 0.00 | 0.00 | 0.00 | 47 | 1019.7 |
| 20260502024509 | 57 | 252 | 0.0 | 1.0 | 0.00 | 0.00 | 0.00 | 47 | 1019.6 |
| 20260502024404 | 57 | 254 | 0.0 | 1.0 | 0.00 | 0.00 | 0.00 | 47 | 1019.6 |
| 20260502024202 | 57 | 261 | 0.0 | 1.0 | 0.00 | 0.00 | 0.00 | 46 | 1019.7 |
| 20260502024047 | 57 | 257 | 0.0 | 1.0 | 0.00 | 0.00 | 0.00 | 47 | 1019.7 |
| 20260502023940 | 58 | 257 | 0.0 | 1.0 | 0.00 | 0.00 | 0.00 | 46 | 1019.7 |
| 20260502023727 | 58 | 306 | 0.0 | 1.0 | 0.00 | 0.00 | 0.00 | 46 | 1019.6 |
| 20260502023623 | 58 | 256 | 0.0 | 1.0 | 0.00 | 0.00 | 0.00 | 46 | 1019.6 |
| 20260502023516 | 58 | 256 | 0.0 | 1.0 | 0.00 | 0.00 | 0.00 | 46 | 1019.7 |
| 20260502023410 | 58 | 243 | 0.0 | 1.0 | 0.00 | 0.00 | 0.00 | 46 | 1019.6 |
| 20260502023303 | 58 | 269 | 0.0 | 1.0 | 0.00 | 0.00 | 0.00 | 46 | 1019.6 |
| 20260502023203 | 58 | 269 | 0.0 | 1.0 | 0.00 | 0.00 | 0.00 | 46 | 1019.6 |
| 20260502023103 | 58 | 269 | 0.0 | 1.0 | 0.00 | 0.00 | 0.00 | 47 | 1019.7 |
| 20260502022946 | 58 | 214 | 0.0 | 1.0 | 0.00 | 0.00 | 0.00 | 47 | 1019.6 |
| 20260502022839 | 58 | 205 | 0.0 | 2.0 | 0.00 | 0.00 | 0.00 | 46 | 1019.6 |
| 20260502022734 | 58 | 231 | 0.0 | 2.0 | 0.00 | 0.00 | 0.00 | 46 | 1019.6 |
| 20260502022601 | 58 | 236 | 0.0 | 2.0 | 0.00 | 0.00 | 0.00 | 45 | 1019.6 |
| 20260502022503 | 58 | 246 | 0.0 | 2.0 | 0.00 | 0.00 | 0.00 | 45 | 1019.6 |
| 20260502022402 | 58 | 230 | 0.0 | 2.0 | 0.00 | 0.00 | 0.00 | 45 | 1019.5 |
| 20260502022302 | 59 | 236 | 0.0 | 2.0 | 0.00 | 0.00 | 0.00 | 44 | 1019.5 |
| 20260502022202 | 59 | 236 | 0.0 | 2.0 | 0.00 | 0.00 | 0.00 | 44 | 1019.5 |
| 20260502022101 | 59 | 236 | 0.0 | 2.0 | 0.00 | 0.00 | 0.00 | 44 | 1019.5 |
| 20260502022044 | 59 | 236 | 0.0 | 2.0 | 0.00 | 0.00 | 0.00 | 44 | 1019.5 |
| 20260502021938 | 59 | 216 | 0.0 | 1.0 | 0.00 | 0.00 | 0.00 | 43 | 1019.5 |
| 20260502021832 | 59 | 216 | 0.0 | 1.0 | 0.00 | 0.00 | 0.00 | 43 | 1019.5 |
| 20260502021726 | 59 | 252 | 0.0 | 2.0 | 0.00 | 0.00 | 0.00 | 42 | 1019.4 |
| 20260502021619 | 59 | 250 | 0.0 | 2.0 | 0.00 | 0.00 | 0.00 | 42 | 1019.4 |
| 20260502021407 | 59 | 244 | 0.0 | 3.0 | 0.00 | 0.00 | 0.00 | 42 | 1019.4 |
| 20260502021302 | 60 | 236 | 0.0 | 3.0 | 0.00 | 0.00 | 0.00 | 41 | 1019.4 |
| 20260502021201 | 60 | 252 | 0.0 | 3.0 | 0.00 | 0.00 | 0.00 | 41 | 1019.4 |
| 20260502021102 | 60 | 232 | 0.0 | 3.0 | 0.00 | 0.00 | 0.00 | 41 | 1019.4 |
| 20260502021002 | 60 | 139 | 0.0 | 3.0 | 0.00 | 0.00 | 0.00 | 40 | 1019.4 |
| 20260502020944 | 60 | 139 | 0.0 | 3.0 | 0.00 | 0.00 | 0.00 | 40 | 1019.4 |
| 20260502020837 | 60 | 236 | 0.0 | 3.0 | 0.00 | 0.00 | 0.00 | 41 | 1019.4 |
| 20260502020731 | 60 | 248 | 0.0 | 3.0 | 0.00 | 0.00 | 0.00 | 41 | 1019.4 |
| 20260502020625 | 60 | 271 | 0.0 | 2.0 | 0.00 | 0.00 | 0.00 | 41 | 1019.4 |
| 20260502020520 | 60 | 225 | 0.0 | 2.0 | 0.00 | 0.00 | 0.00 | 41 | 1019.4 |
| 20260502020414 | 60 | 225 | 0.0 | 3.0 | 0.00 | 0.00 | 0.00 | 41 | 1019.4 |
| 20260502020307 | 60 | 270 | 1.0 | 4.0 | 0.00 | 0.00 | 0.00 | 41 | 1019.4 |
| 20260502020202 | 60 | 271 | 1.0 | 4.0 | 0.00 | 0.00 | 0.00 | 41 | 1019.4 |
| 20260502020005 | 60 | 224 | 1.0 | 4.0 | 0.00 | 0.00 | 0.00 | 41 | 1019.4 |
| 20260502015903 | 61 | 261 | 1.0 | 4.0 | 0.00 | 0.00 | 0.00 | 41 | 1019.4 |
| 20260502015803 | 61 | 240 | 1.0 | 4.0 | 0.00 | 0.00 | 0.00 | 42 | 1019.3 |
| 20260502015702 | 61 | 217 | 1.0 | 4.0 | 0.00 | 0.00 | 0.00 | 41 | 1019.3 |
| 20260502015602 | 61 | 237 | 1.0 | 4.0 | 0.00 | 0.00 | 0.00 | 40 | 1019.3 |
| 20260502015503 | 61 | 215 | 1.0 | 4.0 | 0.00 | 0.00 | 0.00 | 41 | 1019.2 |
| 20260502015403 | 61 | 252 | 1.0 | 4.0 | 0.00 | 0.00 | 0.00 | 41 | 1019.3 |
| 20260502015305 | 61 | 165 | 1.0 | 4.0 | 0.00 | 0.00 | 0.00 | 42 | 1019.3 |
| 20260502015203 | 61 | 166 | 2.0 | 8.0 | 0.00 | 0.00 | 0.00 | 42 | 1019.2 |
| 20260502015102 | 61 | 236 | 2.0 | 8.0 | 0.00 | 0.00 | 0.00 | 41 | 1019.3 |
| 20260502014903 | 61 | 219 | 2.0 | 8.0 | 0.00 | 0.00 | 0.00 | 40 | 1019.3 |
| 20260502014703 | 62 | 242 | 2.0 | 7.0 | 0.00 | 0.00 | 0.00 | 40 | 1019.2 |
| 20260502014602 | 62 | 207 | 2.0 | 7.0 | 0.00 | 0.00 | 0.00 | 40 | 1019.3 |
| 20260502014517 | 62 | 161 | 2.0 | 7.0 | 0.00 | 0.00 | 0.00 | 40 | 1019.3 |
| 20260502014411 | 62 | 119 | 2.0 | 8.0 | 0.00 | 0.00 | 0.00 | 39 | 1019.2 |
| 20260502014201 | 62 | 252 | 1.0 | 7.0 | 0.00 | 0.00 | 0.00 | 39 | 1019.2 |
| 20260502014101 | 62 | 238 | 1.0 | 7.0 | 0.00 | 0.00 | 0.00 | 38 | 1019.2 |
| 20260502014002 | 62 | 184 | 1.0 | 7.0 | 0.00 | 0.00 | 0.00 | 37 | 1019.2 |
| 20260502013902 | 62 | 201 | 1.0 | 4.0 | 0.00 | 0.00 | 0.00 | 37 | 1019.2 |
| 20260502013801 | 62 | 250 | 1.0 | 4.0 | 0.00 | 0.00 | 0.00 | 38 | 1019.1 |
| 20260502013701 | 63 | 153 | 1.0 | 7.0 | 0.00 | 0.00 | 0.00 | 37 | 1019.2 |
| 20260502013603 | 63 | 215 | 1.0 | 7.0 | 0.00 | 0.00 | 0.00 | 38 | 1019.1 |
| 20260502013502 | 63 | 191 | 2.0 | 7.0 | 0.00 | 0.00 | 0.00 | 37 | 1019.1 |
| 20260502013402 | 63 | 213 | 2.0 | 7.0 | 0.00 | 0.00 | 0.00 | 35 | 1019.2 |
| 20260502013303 | 63 | 233 | 2.0 | 7.0 | 0.00 | 0.00 | 0.00 | 36 | 1019.1 |
| 20260502013202 | 63 | 281 | 2.0 | 7.0 | 0.00 | 0.00 | 0.00 | 34 | 1019.2 |
| 20260502013003 | 63 | 108 | 2.0 | 8.0 | 0.00 | 0.00 | 0.00 | 36 | 1019.1 |
| 20260502012945 | 63 | 252 | 2.0 | 8.0 | 0.00 | 0.00 | 0.00 | 35 | 1019.1 |
| 20260502012734 | 63 | 236 | 2.0 | 7.0 | 0.00 | 0.00 | 0.00 | 35 | 1019.1 |
| 20260502012628 | 63 | 227 | 2.0 | 7.0 | 0.00 | 0.00 | 0.00 | 35 | 1019.1 |
| 20260502012415 | 64 | 167 | 2.0 | 7.0 | 0.00 | 0.00 | 0.00 | 35 | 1019.1 |
| 20260502012310 | 64 | 195 | 2.0 | 7.0 | 0.00 | 0.00 | 0.00 | 35 | 1019.1 |
| 20260502012002 | 64 | 236 | 2.0 | 7.0 | 0.00 | 0.00 | 0.00 | 33 | 1019.1 |
| 20260502011900 | 64 | 159 | 2.0 | 7.0 | 0.00 | 0.00 | 0.00 | 34 | 1019.1 |
| 20260502011846 | 64 | 146 | 2.0 | 7.0 | 0.00 | 0.00 | 0.00 | 34 | 1019.1 |
| 20260502011501 | 65 | 241 | 2.0 | 7.0 | 0.00 | 0.00 | 0.00 | 34 | 1019.1 |
| 20260502011402 | 65 | 209 | 2.0 | 7.0 | 0.00 | 0.00 | 0.00 | 35 | 1019.1 |
| 20260502011202 | 65 | 241 | 2.0 | 7.0 | 0.00 | 0.00 | 0.00 | 34 | 1019.1 |
| 20260502011103 | 65 | 255 | 2.0 | 7.0 | 0.00 | 0.00 | 0.00 | 35 | 1019.1 |
| 20260502011004 | 65 | 263 | 2.0 | 6.0 | 0.00 | 0.00 | 0.00 | 34 | 1019.1 |
| 20260502010924 | 65 | 139 | 2.0 | 6.0 | 0.00 | 0.00 | 0.00 | 34 | 1019.1 |
| 20260502010817 | 65 | 213 | 2.0 | 6.0 | 0.00 | 0.00 | 0.00 | 35 | 1019.1 |
| 20260502010711 | 65 | 150 | 2.0 | 6.0 | 0.00 | 0.00 | 0.00 | 34 | 1019.1 |
| 20260502010606 | 65 | 286 | 2.0 | 6.0 | 0.00 | 0.00 | 0.00 | 34 | 1019.1 |
| 20260502010502 | 66 | 163 | 2.0 | 6.0 | 0.00 | 0.00 | 0.00 | 35 | 1019.2 |
| 20260502010403 | 66 | 279 | 2.0 | 6.0 | 0.00 | 0.00 | 0.00 | 35 | 1019.2 |
| 20260502010302 | 66 | 155 | 2.0 | 6.0 | 0.00 | 0.00 | 0.00 | 34 | 1019.1 |
| 20260502010203 | 66 | 140 | 2.0 | 6.0 | 0.00 | 0.00 | 0.00 | 36 | 1019.2 |
| 20260502010004 | 66 | 292 | 2.0 | 7.0 | 0.00 | 0.00 | 0.00 | 34 | 1019.1 |
| 20260502005819 | 66 | 238 | 2.0 | 7.0 | 0.00 | 0.00 | 0.00 | 35 | 1019.1 |
| 20260502005714 | 66 | 210 | 2.0 | 7.0 | 0.00 | 0.00 | 0.00 | 35 | 1019.2 |
| 20260502005601 | 66 | 160 | 3.0 | 7.0 | 0.00 | 0.00 | 0.00 | 35 | 1019.3 |
| 20260502005503 | 66 | 141 | 3.0 | 7.0 | 0.00 | 0.00 | 0.00 | 34 | 1019.2 |
| 20260502005403 | 66 | 250 | 3.0 | 8.0 | 0.00 | 0.00 | 0.00 | 36 | 1019.2 |
| 20260502005305 | 66 | 248 | 3.0 | 8.0 | 0.00 | 0.00 | 0.00 | 35 | 1019.1 |
| 20260502005201 | 66 | 213 | 3.0 | 8.0 | 0.00 | 0.00 | 0.00 | 36 | 1019.1 |
| 20260502005101 | 66 | 140 | 3.0 | 8.0 | 0.00 | 0.00 | 0.00 | 35 | 1019.2 |
| 20260502005003 | 66 | 261 | 3.0 | 8.0 | 0.00 | 0.00 | 0.00 | 35 | 1019.2 |
| 20260502004942 | 66 | 233 | 3.0 | 8.0 | 0.00 | 0.00 | 0.00 | 35 | 1019.2 |
| 20260502004835 | 66 | 236 | 3.0 | 8.0 | 0.00 | 0.00 | 0.00 | 35 | 1019.1 |
| 20260502004730 | 66 | 186 | 3.0 | 8.0 | 0.00 | 0.00 | 0.00 | 34 | 1019.1 |
| 20260502004623 | 66 | 185 | 3.0 | 8.0 | 0.00 | 0.00 | 0.00 | 35 | 1019.2 |
| 20260502004518 | 66 | 171 | 3.0 | 8.0 | 0.00 | 0.00 | 0.00 | 36 | 1019.2 |
| 20260502004411 | 66 | 159 | 3.0 | 8.0 | 0.00 | 0.00 | 0.00 | 35 | 1019.1 |
| 20260502004306 | 66 | 213 | 3.0 | 8.0 | 0.00 | 0.00 | 0.00 | 35 | 1019.1 |
| 20260502004202 | 67 | 147 | 2.0 | 8.0 | 0.00 | 0.00 | 0.00 | 35 | 1019.1 |
| 20260502004101 | 67 | 211 | 2.0 | 8.0 | 0.00 | 0.00 | 0.00 | 35 | 1019.1 |
| 20260502004003 | 67 | 262 | 2.0 | 8.0 | 0.00 | 0.00 | 0.00 | 33 | 1019.1 |
| 20260502003901 | 67 | 211 | 2.0 | 8.0 | 0.00 | 0.00 | 0.00 | 32 | 1019.1 |
| 20260502003703 | 67 | 277 | 2.0 | 7.0 | 0.00 | 0.00 | 0.00 | 31 | 1019.1 |
| 20260502003603 | 67 | 232 | 2.0 | 7.0 | 0.00 | 0.00 | 0.00 | 32 | 1019.2 |
| 20260502003403 | 67 | 114 | 2.0 | 7.0 | 0.00 | 0.00 | 0.00 | 32 | 1019.1 |
| 20260502003302 | 67 | 266 | 2.0 | 7.0 | 0.00 | 0.00 | 0.00 | 32 | 1019.1 |
| 20260502003102 | 67 | 222 | 2.0 | 6.0 | 0.00 | 0.00 | 0.00 | 30 | 1019.1 |
| 20260502003041 | 67 | 124 | 2.0 | 7.0 | 0.00 | 0.00 | 0.00 | 29 | 1019.1 |
| 20260502002828 | 68 | 305 | 2.0 | 7.0 | 0.00 | 0.00 | 0.00 | 28 | 1019.1 |
| 20260502002721 | 67 | 87 | 2.0 | 7.0 | 0.00 | 0.00 | 0.00 | 29 | 1019.1 |
| 20260502002616 | 67 | 221 | 2.0 | 8.0 | 0.00 | 0.00 | 0.00 | 29 | 1019.2 |
| 20260502002509 | 67 | 163 | 2.0 | 8.0 | 0.00 | 0.00 | 0.00 | 29 | 1019.2 |
| 20260502002404 | 67 | 270 | 2.0 | 8.0 | 0.00 | 0.00 | 0.00 | 28 | 1019.1 |
| 20260502002201 | 67 | 259 | 3.0 | 8.0 | 0.00 | 0.00 | 0.00 | 28 | 1019.2 |
| 20260502002101 | 67 | 183 | 3.0 | 9.0 | 0.00 | 0.00 | 0.00 | 30 | 1019.1 |
| 20260502001936 | 67 | 238 | 3.0 | 8.0 | 0.00 | 0.00 | 0.00 | 30 | 1019.2 |
| 20260502001830 | 67 | 192 | 3.0 | 8.0 | 0.00 | 0.00 | 0.00 | 28 | 1019.2 |
| 20260502001702 | 67 | 305 | 2.0 | 8.0 | 0.00 | 0.00 | 0.00 | 28 | 1019.3 |
| 20260502001602 | 67 | 248 | 3.0 | 8.0 | 0.00 | 0.00 | 0.00 | 29 | 1019.2 |
| 20260502001443 | 67 | 308 | 3.0 | 8.0 | 0.00 | 0.00 | 0.00 | 30 | 1019.2 |
| 20260502001334 | 67 | 271 | 3.0 | 8.0 | 0.00 | 0.00 | 0.00 | 29 | 1019.2 |
| 20260502001203 | 67 | 270 | 2.0 | 8.0 | 0.00 | 0.00 | 0.00 | 29 | 1019.2 |
| 20260502001102 | 67 | 342 | 2.0 | 7.0 | 0.00 | 0.00 | 0.00 | 29 | 1019.3 |
| 20260502001003 | 67 | 136 | 2.0 | 6.0 | 0.00 | 0.00 | 0.00 | 29 | 1019.3 |
| 20260502000902 | 67 | 9 | 2.0 | 5.0 | 0.00 | 0.00 | 0.00 | 27 | 1019.4 |
| 20260502000801 | 67 | 318 | 2.0 | 5.0 | 0.00 | 0.00 | 0.00 | 27 | 1019.2 |
| 20260502000748 | 68 | 331 | 2.0 | 5.0 | 0.00 | 0.00 | 0.00 | 27 | 1019.2 |
| 20260502000640 | 68 | 29 | 2.0 | 7.0 | 0.00 | 0.00 | 0.00 | 28 | 1019.3 |
| 20260502000532 | 67 | 265 | 2.0 | 7.0 | 0.00 | 0.00 | 0.00 | 29 | 1019.3 |
| 20260502000425 | 67 | 261 | 2.0 | 7.0 | 0.00 | 0.00 | 0.00 | 30 | 1019.3 |
| 20260502000317 | 67 | 268 | 2.0 | 7.0 | 0.00 | 0.00 | 0.00 | 30 | 1019.3 |
| 20260502000208 | 67 | 138 | 2.0 | 7.0 | 0.00 | 0.00 | 0.00 | 31 | 1019.3 |
| 20260502000101 | 67 | 218 | 2.0 | 7.0 | 0.00 | 0.00 | 0.00 | 29 | 1019.3 |
| 20260502000005 | 67 | 277 | 2.0 | 7.0 | 0.00 | 0.00 | 0.00 | 28 | 1019.3 |
| 20260501235903 | 67 | 240 | 2.0 | 7.0 | 0.00 | 0.00 | 0.00 | 28 | 1019.3 |
| 20260501235844 | 67 | 159 | 2.0 | 7.0 | 0.00 | 0.00 | 0.00 | 28 | 1019.3 |
| 20260501235736 | 67 | 262 | 2.0 | 6.0 | 0.00 | 0.00 | 0.00 | 29 | 1019.2 |
| 20260501235628 | 67 | 160 | 2.0 | 6.0 | 0.00 | 0.00 | 0.00 | 28 | 1019.3 |
| 20260501235409 | 67 | 198 | 2.0 | 6.0 | 0.00 | 0.00 | 0.00 | 30 | 1019.3 |
| 20260501235305 | 67 | 225 | 2.0 | 6.0 | 0.00 | 0.00 | 0.00 | 31 | 1019.3 |
| 20260501235202 | 67 | 241 | 2.0 | 7.0 | 0.00 | 0.00 | 0.00 | 32 | 1019.4 |
| 20260501235101 | 67 | 292 | 3.0 | 8.0 | 0.00 | 0.00 | 0.00 | 29 | 1019.4 |
| 20260501234826 | 67 | 299 | 3.0 | 8.0 | 0.00 | 0.00 | 0.00 | 29 | 1019.4 |
| 20260501234607 | 67 | 237 | 3.0 | 8.0 | 0.00 | 0.00 | 0.00 | 29 | 1019.3 |
| 20260501234402 | 67 | 249 | 2.0 | 8.0 | 0.00 | 0.00 | 0.00 | 28 | 1019.3 |
| 20260501234243 | 67 | 216 | 2.0 | 9.0 | 0.00 | 0.00 | 0.00 | 28 | 1019.4 |
| 20260501234136 | 67 | 150 | 3.0 | 7.0 | 0.00 | 0.00 | 0.00 | 29 | 1019.4 |
| 20260501234029 | 67 | 235 | 3.0 | 7.0 | 0.00 | 0.00 | 0.00 | 30 | 1019.4 |
| 20260501233918 | 67 | 231 | 3.0 | 8.0 | 0.00 | 0.00 | 0.00 | 30 | 1019.4 |
| 20260501233809 | 67 | 211 | 3.0 | 11.0 | 0.00 | 0.00 | 0.00 | 30 | 1019.4 |
| 20260501233702 | 67 | 219 | 3.0 | 11.0 | 0.00 | 0.00 | 0.00 | 29 | 1019.4 |
| 20260501233517 | 67 | 197 | 3.0 | 11.0 | 0.00 | 0.00 | 0.00 | 30 | 1019.4 |
| 20260501233408 | 67 | 144 | 3.0 | 14.0 | 0.00 | 0.00 | 0.00 | 29 | 1019.4 |
| 20260501233302 | 67 | 239 | 3.0 | 14.0 | 0.00 | 0.00 | 0.00 | 29 | 1019.4 |
| 20260501233201 | 67 | 128 | 3.0 | 14.0 | 0.00 | 0.00 | 0.00 | 30 | 1019.4 |
| 20260501233149 | 67 | 219 | 3.0 | 14.0 | 0.00 | 0.00 | 0.00 | 30 | 1019.4 |
| 20260501233040 | 67 | 243 | 3.0 | 14.0 | 0.00 | 0.00 | 0.00 | 28 | 1019.4 |
| 20260501232821 | 67 | 345 | 3.0 | 14.0 | 0.00 | 0.00 | 0.00 | 29 | 1019.4 |
| 20260501232604 | 67 | 241 | 2.0 | 14.0 | 0.00 | 0.00 | 0.00 | 30 | 1019.4 |
| 20260501232502 | 67 | 14 | 2.0 | 9.0 | 0.00 | 0.00 | 0.00 | 29 | 1019.4 |
| 20260501232401 | 67 | 301 | 2.0 | 9.0 | 0.00 | 0.00 | 0.00 | 31 | 1019.4 |
| 20260501232305 | 67 | 148 | 2.0 | 9.0 | 0.00 | 0.00 | 0.00 | 29 | 1019.5 |
| 20260501232232 | 67 | 212 | 2.0 | 9.0 | 0.00 | 0.00 | 0.00 | 30 | 1019.5 |
| 20260501232123 | 67 | 112 | 2.0 | 8.0 | 0.00 | 0.00 | 0.00 | 31 | 1019.4 |
| 20260501232023 | 67 | 344 | 2.0 | 8.0 | 0.00 | 0.00 | 0.00 | 29 | 1019.5 |
| 20260501231908 | 67 | 246 | 2.0 | 8.0 | 0.00 | 0.00 | 0.00 | 31 | 1019.4 |
| 20260501231802 | 67 | 311 | 2.0 | 7.0 | 0.00 | 0.00 | 0.00 | 30 | 1019.4 |
| 20260501231702 | 67 | 254 | 2.0 | 9.0 | 0.00 | 0.00 | 0.00 | 30 | 1019.4 |
| 20260501231602 | 67 | 260 | 2.0 | 9.0 | 0.00 | 0.00 | 0.00 | 29 | 1019.5 |
| 20260501231502 | 67 | 225 | 3.0 | 9.0 | 0.00 | 0.00 | 0.00 | 32 | 1019.5 |
| 20260501231403 | 67 | 244 | 3.0 | 9.0 | 0.00 | 0.00 | 0.00 | 29 | 1019.5 |
| 20260501231346 | 67 | 279 | 3.0 | 9.0 | 0.00 | 0.00 | 0.00 | 29 | 1019.5 |
| 20260501231128 | 66 | 267 | 3.0 | 9.0 | 0.00 | 0.00 | 0.00 | 31 | 1019.5 |
| 20260501230909 | 67 | 261 | 3.0 | 9.0 | 0.00 | 0.00 | 0.00 | 30 | 1019.5 |
| 20260501230806 | 67 | 195 | 3.0 | 8.0 | 0.00 | 0.00 | 0.00 | 29 | 1019.6 |
| 20260501230501 | 67 | 191 | 3.0 | 8.0 | 0.00 | 0.00 | 0.00 | 29 | 1019.5 |
| 20260501230401 | 67 | 153 | 3.0 | 8.0 | 0.00 | 0.00 | 0.00 | 29 | 1019.5 |
| 20260501230344 | 67 | 275 | 3.0 | 8.0 | 0.00 | 0.00 | 0.00 | 30 | 1019.5 |
| 20260501230236 | 67 | 209 | 3.0 | 8.0 | 0.00 | 0.00 | 0.00 | 29 | 1019.6 |
| 20260501230128 | 67 | 248 | 3.0 | 8.0 | 0.00 | 0.00 | 0.00 | 28 | 1019.6 |
| 20260501230007 | 67 | 104 | 3.0 | 7.0 | 0.00 | 0.00 | 0.00 | 31 | 1019.6 |
| 20260501225928 | 67 | 196 | 3.0 | 7.0 | 0.00 | 0.00 | 0.00 | 30 | 1019.6 |
| 20260501225818 | 67 | 270 | 3.0 | 7.0 | 0.00 | 0.00 | 0.00 | 29 | 1019.6 |
| 20260501225708 | 67 | 213 | 3.0 | 7.0 | 0.00 | 0.00 | 0.00 | 30 | 1019.7 |
| 20260501225601 | 67 | 130 | 3.0 | 9.0 | 0.00 | 0.00 | 0.00 | 29 | 1019.6 |
| 20260501225502 | 67 | 273 | 3.0 | 9.0 | 0.00 | 0.00 | 0.00 | 30 | 1019.7 |
| 20260501225401 | 66 | 155 | 3.0 | 9.0 | 0.00 | 0.00 | 0.00 | 29 | 1019.7 |
| 20260501225301 | 66 | 225 | 3.0 | 9.0 | 0.00 | 0.00 | 0.00 | 30 | 1019.6 |
| 20260501225202 | 66 | 158 | 3.0 | 9.0 | 0.00 | 0.00 | 0.00 | 30 | 1019.6 |
| 20260501225101 | 66 | 291 | 3.0 | 9.0 | 0.00 | 0.00 | 0.00 | 29 | 1019.7 |
| 20260501225002 | 66 | 225 | 3.0 | 9.0 | 0.00 | 0.00 | 0.00 | 29 | 1019.7 |
| 20260501224944 | 66 | 152 | 3.0 | 9.0 | 0.00 | 0.00 | 0.00 | 29 | 1019.7 |
| 20260501224834 | 66 | 269 | 3.0 | 9.0 | 0.00 | 0.00 | 0.00 | 28 | 1019.7 |
| 20260501224723 | 66 | 185 | 4.0 | 9.0 | 0.00 | 0.00 | 0.00 | 29 | 1019.6 |
| 20260501224614 | 66 | 200 | 4.0 | 11.0 | 0.00 | 0.00 | 0.00 | 29 | 1019.6 |
| 20260501224504 | 67 | 252 | 4.0 | 11.0 | 0.00 | 0.00 | 0.00 | 29 | 1019.7 |
| 20260501224401 | 67 | 230 | 3.0 | 11.0 | 0.00 | 0.00 | 0.00 | 29 | 1019.7 |
| 20260501224301 | 67 | 272 | 4.0 | 11.0 | 0.00 | 0.00 | 0.00 | 29 | 1019.7 |
| 20260501224244 | 67 | 265 | 4.0 | 11.0 | 0.00 | 0.00 | 0.00 | 29 | 1019.7 |
| 20260501224102 | 66 | 154 | 4.0 | 11.0 | 0.00 | 0.00 | 0.00 | 31 | 1019.6 |
| 20260501224003 | 66 | 221 | 4.0 | 11.0 | 0.00 | 0.00 | 0.00 | 28 | 1019.7 |
| 20260501223902 | 66 | 255 | 4.0 | 11.0 | 0.00 | 0.00 | 0.00 | 29 | 1019.6 |
| 20260501223801 | 66 | 257 | 3.0 | 12.0 | 0.00 | 0.00 | 0.00 | 29 | 1019.6 |
| 20260501223746 | 66 | 264 | 3.0 | 12.0 | 0.00 | 0.00 | 0.00 | 29 | 1019.6 |
| 20260501223636 | 66 | 269 | 3.0 | 10.0 | 0.00 | 0.00 | 0.00 | 29 | 1019.7 |
| 20260501223502 | 67 | 246 | 3.0 | 10.0 | 0.00 | 0.00 | 0.00 | 29 | 1019.7 |
| 20260501223402 | 66 | 236 | 4.0 | 10.0 | 0.00 | 0.00 | 0.00 | 29 | 1019.7 |
| 20260501223303 | 66 | 226 | 3.0 | 10.0 | 0.00 | 0.00 | 0.00 | 28 | 1019.7 |
| 20260501223202 | 67 | 34 | 3.0 | 10.0 | 0.00 | 0.00 | 0.00 | 29 | 1019.7 |
| 20260501223101 | 66 | 137 | 3.0 | 8.0 | 0.00 | 0.00 | 0.00 | 29 | 1019.7 |
| 20260501223004 | 66 | 189 | 3.0 | 8.0 | 0.00 | 0.00 | 0.00 | 30 | 1019.7 |
| 20260501222803 | 66 | 125 | 4.0 | 8.0 | 0.00 | 0.00 | 0.00 | 30 | 1019.8 |
| 20260501222702 | 66 | 321 | 4.0 | 8.0 | 0.00 | 0.00 | 0.00 | 30 | 1019.9 |
| 20260501222601 | 66 | 316 | 3.0 | 10.0 | 0.00 | 0.00 | 0.00 | 29 | 1019.8 |
| 20260501222542 | 66 | 335 | 3.0 | 10.0 | 0.00 | 0.00 | 0.00 | 29 | 1019.8 |
| 20260501222431 | 67 | 34 | 3.0 | 10.0 | 0.00 | 0.00 | 0.00 | 28 | 1019.8 |
| 20260501222321 | 67 | 163 | 3.0 | 10.0 | 0.00 | 0.00 | 0.00 | 29 | 1019.9 |
| 20260501222213 | 67 | 276 | 3.0 | 10.0 | 0.00 | 0.00 | 0.00 | 29 | 1019.9 |
| 20260501222102 | 67 | 225 | 3.0 | 10.0 | 0.00 | 0.00 | 0.00 | 29 | 1019.9 |
| 20260501222002 | 67 | 249 | 3.0 | 10.0 | 0.00 | 0.00 | 0.00 | 30 | 1019.9 |
| 20260501221901 | 67 | 261 | 3.0 | 10.0 | 0.00 | 0.00 | 0.00 | 30 | 1020.0 |
| 20260501221802 | 66 | 268 | 4.0 | 10.0 | 0.00 | 0.00 | 0.00 | 30 | 1019.9 |
| 20260501221702 | 67 | 318 | 4.0 | 10.0 | 0.00 | 0.00 | 0.00 | 30 | 1020.0 |
| 20260501221642 | 66 | 53 | 4.0 | 10.0 | 0.00 | 0.00 | 0.00 | 29 | 1020.0 |
| 20260501221503 | 66 | 196 | 4.0 | 10.0 | 0.00 | 0.00 | 0.00 | 30 | 1019.9 |
| 20260501221442 | 66 | 205 | 4.0 | 10.0 | 0.00 | 0.00 | 0.00 | 30 | 1019.9 |
| 20260501221332 | 66 | 287 | 4.0 | 10.0 | 0.00 | 0.00 | 0.00 | 29 | 1019.9 |
| 20260501221221 | 66 | 219 | 4.0 | 10.0 | 0.00 | 0.00 | 0.00 | 29 | 1020.0 |
| 20260501221004 | 66 | 155 | 3.0 | 10.0 | 0.00 | 0.00 | 0.00 | 31 | 1020.0 |
| 20260501220901 | 66 | 304 | 4.0 | 10.0 | 0.00 | 0.00 | 0.00 | 29 | 1020.0 |
| 20260501220803 | 66 | 281 | 4.0 | 11.0 | 0.00 | 0.00 | 0.00 | 29 | 1019.9 |
| 20260501220741 | 66 | 202 | 3.0 | 11.0 | 0.00 | 0.00 | 0.00 | 29 | 1019.9 |
| 20260501220501 | 66 | 234 | 3.0 | 13.0 | 0.00 | 0.00 | 0.00 | 29 | 1020.1 |
| 20260501220401 | 66 | 238 | 3.0 | 13.0 | 0.00 | 0.00 | 0.00 | 31 | 1020.1 |
| 20260501220202 | 66 | 279 | 4.0 | 13.0 | 0.00 | 0.00 | 0.00 | 29 | 1020.0 |
| 20260501220101 | 66 | 252 | 4.0 | 13.0 | 0.00 | 0.00 | 0.00 | 30 | 1020.1 |
| 20260501220027 | 66 | 267 | 4.0 | 13.0 | 0.00 | 0.00 | 0.00 | 31 | 1020.1 |
| 20260501215910 | 66 | 231 | 4.0 | 13.0 | 0.00 | 0.00 | 0.00 | 29 | 1020.1 |
| 20260501215801 | 66 | 61 | 3.0 | 13.0 | 0.00 | 0.00 | 0.00 | 28 | 1020.1 |
| 20260501215540 | 66 | 234 | 3.0 | 9.0 | 0.00 | 0.00 | 0.00 | 29 | 1020.1 |
| 20260501215429 | 66 | 240 | 3.0 | 9.0 | 0.00 | 0.00 | 0.00 | 30 | 1020.1 |
| 20260501215320 | 66 | 253 | 3.0 | 7.0 | 0.00 | 0.00 | 0.00 | 29 | 1020.0 |
| 20260501215210 | 66 | 224 | 3.0 | 7.0 | 0.00 | 0.00 | 0.00 | 31 | 1020.2 |
| 20260501215103 | 66 | 233 | 3.0 | 15.0 | 0.00 | 0.00 | 0.00 | 30 | 1020.2 |
| 20260501214840 | 66 | 123 | 4.0 | 15.0 | 0.00 | 0.00 | 0.00 | 29 | 1020.1 |
| 20260501214730 | 66 | 226 | 4.0 | 15.0 | 0.00 | 0.00 | 0.00 | 31 | 1020.2 |
| 20260501214619 | 66 | 13 | 4.0 | 15.0 | 0.00 | 0.00 | 0.00 | 31 | 1020.2 |
| 20260501214510 | 66 | 270 | 4.0 | 15.0 | 0.00 | 0.00 | 0.00 | 30 | 1020.2 |
| 20260501214402 | 66 | 228 | 4.0 | 15.0 | 0.00 | 0.00 | 0.00 | 30 | 1020.2 |
| 20260501214251 | 66 | 241 | 4.0 | 15.0 | 0.00 | 0.00 | 0.00 | 31 | 1020.2 |
| 20260501214140 | 66 | 155 | 4.0 | 11.0 | 0.00 | 0.00 | 0.00 | 30 | 1020.1 |
| 20260501214031 | 66 | 255 | 4.0 | 10.0 | 0.00 | 0.00 | 0.00 | 30 | 1020.2 |
| 20260501213921 | 66 | 313 | 4.0 | 10.0 | 0.00 | 0.00 | 0.00 | 33 | 1020.3 |
| 20260501213601 | 66 | 236 | 4.0 | 12.0 | 0.00 | 0.00 | 0.00 | 31 | 1020.2 |
| 20260501213549 | 66 | 317 | 4.0 | 12.0 | 0.00 | 0.00 | 0.00 | 32 | 1020.2 |
| 20260501213440 | 66 | 248 | 4.0 | 12.0 | 0.00 | 0.00 | 0.00 | 33 | 1020.2 |
| 20260501213330 | 66 | 300 | 3.0 | 12.0 | 0.00 | 0.00 | 0.00 | 33 | 1020.3 |
| 20260501213109 | 66 | 171 | 4.0 | 10.0 | 0.00 | 0.00 | 0.00 | 33 | 1020.3 |
| 20260501212909 | 66 | 152 | 4.0 | 14.0 | 0.00 | 0.00 | 0.00 | 33 | 1020.4 |
| 20260501212701 | 65 | 198 | 4.0 | 14.0 | 0.00 | 0.00 | 0.00 | 31 | 1020.4 |
| 20260501212649 | 65 | 211 | 4.0 | 14.0 | 0.00 | 0.00 | 0.00 | 31 | 1020.4 |
| 20260501212402 | 65 | 247 | 5.0 | 14.0 | 0.00 | 0.00 | 0.00 | 32 | 1020.4 |
| 20260501212301 | 65 | 222 | 4.0 | 14.0 | 0.00 | 0.00 | 0.00 | 31 | 1020.4 |
| 20260501212203 | 65 | 259 | 4.0 | 14.0 | 0.00 | 0.00 | 0.00 | 32 | 1020.4 |
| 20260501212101 | 65 | 213 | 4.0 | 10.0 | 0.00 | 0.00 | 0.00 | 32 | 1020.4 |
| 20260501212004 | 65 | 232 | 4.0 | 10.0 | 0.00 | 0.00 | 0.00 | 32 | 1020.5 |
| 20260501211948 | 65 | 240 | 4.0 | 10.0 | 0.00 | 0.00 | 0.00 | 32 | 1020.5 |
| 20260501211838 | 65 | 232 | 4.0 | 10.0 | 0.00 | 0.00 | 0.00 | 33 | 1020.5 |
| 20260501211727 | 65 | 153 | 4.0 | 9.0 | 0.00 | 0.00 | 0.00 | 33 | 1020.5 |
| 20260501211617 | 65 | 224 | 4.0 | 9.0 | 0.00 | 0.00 | 0.00 | 32 | 1020.4 |
| 20260501211507 | 65 | 259 | 4.0 | 9.0 | 0.00 | 0.00 | 0.00 | 29 | 1020.5 |
| 20260501211401 | 65 | 256 | 4.0 | 9.0 | 0.00 | 0.00 | 0.00 | 30 | 1020.6 |
| 20260501211301 | 65 | 249 | 4.0 | 10.0 | 0.00 | 0.00 | 0.00 | 32 | 1020.5 |
| 20260501211248 | 65 | 238 | 4.0 | 10.0 | 0.00 | 0.00 | 0.00 | 32 | 1020.5 |
| 20260501211137 | 66 | 247 | 3.0 | 10.0 | 0.00 | 0.00 | 0.00 | 31 | 1020.6 |
| 20260501211030 | 66 | 269 | 4.0 | 10.0 | 0.00 | 0.00 | 0.00 | 34 | 1020.5 |
| 20260501210918 | 65 | 242 | 3.0 | 10.0 | 0.00 | 0.00 | 0.00 | 33 | 1020.5 |
| 20260501210801 | 65 | 175 | 3.0 | 10.0 | 0.00 | 0.00 | 0.00 | 33 | 1020.6 |
| 20260501210702 | 65 | 247 | 3.0 | 10.0 | 0.00 | 0.00 | 0.00 | 32 | 1020.6 |
| 20260501210623 | 65 | 209 | 4.0 | 10.0 | 0.00 | 0.00 | 0.00 | 33 | 1020.6 |
| 20260501210513 | 65 | 232 | 4.0 | 10.0 | 0.00 | 0.00 | 0.00 | 31 | 1020.5 |
| 20260501210404 | 65 | 225 | 4.0 | 9.0 | 0.00 | 0.00 | 0.00 | 31 | 1020.6 |
| 20260501210302 | 65 | 347 | 4.0 | 9.0 | 0.00 | 0.00 | 0.00 | 32 | 1020.6 |
| 20260501210144 | 65 | 240 | 4.0 | 9.0 | 0.00 | 0.00 | 0.00 | 32 | 1020.6 |
| 20260501205902 | 65 | 301 | 4.0 | 9.0 | 0.00 | 0.00 | 0.00 | 30 | 1020.7 |
| 20260501205802 | 65 | 201 | 4.0 | 12.0 | 0.00 | 0.00 | 0.00 | 30 | 1020.6 |
| 20260501205702 | 65 | 239 | 4.0 | 12.0 | 0.00 | 0.00 | 0.00 | 30 | 1020.6 |
| 20260501205602 | 65 | 267 | 4.0 | 12.0 | 0.00 | 0.00 | 0.00 | 31 | 1020.6 |
| 20260501205501 | 65 | 265 | 5.0 | 12.0 | 0.00 | 0.00 | 0.00 | 31 | 1020.6 |
| 20260501205442 | 65 | 21 | 5.0 | 12.0 | 0.00 | 0.00 | 0.00 | 31 | 1020.6 |
| 20260501205332 | 65 | 261 | 5.0 | 12.0 | 0.00 | 0.00 | 0.00 | 31 | 1020.5 |
| 20260501205221 | 65 | 242 | 5.0 | 12.0 | 0.00 | 0.00 | 0.00 | 30 | 1020.6 |
| 20260501205111 | 65 | 240 | 5.0 | 12.0 | 0.00 | 0.00 | 0.00 | 29 | 1020.7 |
| 20260501205002 | 65 | 229 | 4.0 | 12.0 | 0.00 | 0.00 | 0.00 | 31 | 1020.7 |
| 20260501204902 | 65 | 249 | 4.0 | 12.0 | 0.00 | 0.00 | 0.00 | 31 | 1020.7 |
| 20260501204801 | 65 | 146 | 4.0 | 12.0 | 0.00 | 0.00 | 0.00 | 31 | 1020.7 |
| 20260501204522 | 65 | 266 | 4.0 | 10.0 | 0.00 | 0.00 | 0.00 | 29 | 1020.7 |
| 20260501204412 | 66 | 186 | 4.0 | 10.0 | 0.00 | 0.00 | 0.00 | 31 | 1020.6 |
| 20260501204301 | 65 | 130 | 4.0 | 13.0 | 0.00 | 0.00 | 0.00 | 32 | 1020.6 |
| 20260501204203 | 65 | 287 | 4.0 | 13.0 | 0.00 | 0.00 | 0.00 | 34 | 1020.7 |
| 20260501204103 | 65 | 281 | 4.0 | 13.0 | 0.00 | 0.00 | 0.00 | 31 | 1020.7 |
| 20260501204003 | 65 | 290 | 4.0 | 13.0 | 0.00 | 0.00 | 0.00 | 30 | 1020.6 |
| 20260501203902 | 65 | 264 | 4.0 | 13.0 | 0.00 | 0.00 | 0.00 | 31 | 1020.6 |
| 20260501203802 | 65 | 266 | 4.0 | 13.0 | 0.00 | 0.00 | 0.00 | 30 | 1020.6 |
| 20260501203702 | 65 | 259 | 4.0 | 13.0 | 0.00 | 0.00 | 0.00 | 31 | 1020.6 |
| 20260501203602 | 66 | 146 | 4.0 | 13.0 | 0.00 | 0.00 | 0.00 | 30 | 1020.6 |
| 20260501203502 | 66 | 213 | 4.0 | 13.0 | 0.00 | 0.00 | 0.00 | 30 | 1020.6 |
| 20260501203406 | 66 | 290 | 4.0 | 9.0 | 0.00 | 0.00 | 0.00 | 31 | 1020.6 |
| 20260501203303 | 66 | 313 | 4.0 | 8.0 | 0.00 | 0.00 | 0.00 | 33 | 1020.6 |
| 20260501203201 | 66 | 199 | 4.0 | 8.0 | 0.00 | 0.00 | 0.00 | 32 | 1020.6 |
| 20260501203146 | 66 | 243 | 4.0 | 8.0 | 0.00 | 0.00 | 0.00 | 33 | 1020.6 |
| 20260501202706 | 65 | 281 | 5.0 | 12.0 | 0.00 | 0.00 | 0.00 | 34 | 1020.6 |
| 20260501202602 | 65 | 265 | 5.0 | 12.0 | 0.00 | 0.00 | 0.00 | 34 | 1020.6 |
| 20260501202501 | 65 | 252 | 5.0 | 12.0 | 0.00 | 0.00 | 0.00 | 33 | 1020.7 |
| 20260501202446 | 65 | 244 | 5.0 | 12.0 | 0.00 | 0.00 | 0.00 | 34 | 1020.7 |
| 20260501202336 | 65 | 122 | 5.0 | 12.0 | 0.00 | 0.00 | 0.00 | 35 | 1020.5 |
| 20260501202201 | 65 | 215 | 4.0 | 10.0 | 0.00 | 0.00 | 0.00 | 34 | 1020.6 |
| 20260501202101 | 65 | 137 | 4.0 | 10.0 | 0.00 | 0.00 | 0.00 | 35 | 1020.6 |
| 20260501202004 | 65 | 209 | 4.0 | 10.0 | 0.00 | 0.00 | 0.00 | 34 | 1020.7 |
| 20260501201902 | 65 | 240 | 4.0 | 10.0 | 0.00 | 0.00 | 0.00 | 35 | 1020.7 |
| 20260501201802 | 65 | 284 | 4.0 | 10.0 | 0.00 | 0.00 | 0.00 | 34 | 1020.5 |
| 20260501201706 | 66 | 229 | 4.0 | 8.0 | 0.00 | 0.00 | 0.00 | 35 | 1020.5 |
| 20260501201601 | 66 | 250 | 4.0 | 9.0 | 0.00 | 0.00 | 0.00 | 35 | 1020.6 |
| 20260501201503 | 66 | 246 | 4.0 | 9.0 | 0.00 | 0.00 | 0.00 | 35 | 1020.6 |
| 20260501201403 | 65 | 223 | 4.0 | 9.0 | 0.00 | 0.00 | 0.00 | 36 | 1020.6 |
| 20260501201301 | 65 | 250 | 4.0 | 9.0 | 0.00 | 0.00 | 0.00 | 37 | 1020.6 |
| 20260501201241 | 65 | 202 | 4.0 | 9.0 | 0.00 | 0.00 | 0.00 | 35 | 1020.6 |
| 20260501201134 | 64 | 313 | 4.0 | 9.0 | 0.00 | 0.00 | 0.00 | 36 | 1020.7 |
| 20260501201028 | 64 | 236 | 4.0 | 9.0 | 0.00 | 0.00 | 0.00 | 34 | 1020.6 |
| 20260501200920 | 64 | 213 | 4.0 | 9.0 | 0.00 | 0.00 | 0.00 | 32 | 1020.6 |
| 20260501200815 | 65 | 261 | 4.0 | 9.0 | 0.00 | 0.00 | 0.00 | 32 | 1020.7 |
| 20260501200708 | 65 | 301 | 4.0 | 10.0 | 0.00 | 0.00 | 0.00 | 34 | 1020.5 |
| 20260501200603 | 65 | 220 | 3.0 | 10.0 | 0.00 | 0.00 | 0.00 | 34 | 1020.6 |
| 20260501200502 | 65 | 248 | 3.0 | 8.0 | 0.00 | 0.00 | 0.00 | 33 | 1020.7 |
| 20260501200402 | 65 | 270 | 3.0 | 7.0 | 0.00 | 0.00 | 0.00 | 32 | 1020.7 |
| 20260501200302 | 65 | 221 | 3.0 | 7.0 | 0.00 | 0.00 | 0.00 | 31 | 1020.7 |
| 20260501200004 | 65 | 159 | 3.0 | 7.0 | 0.00 | 0.00 | 0.00 | 33 | 1020.7 |
| 20260501195902 | 64 | 236 | 3.0 | 10.0 | 0.00 | 0.00 | 0.00 | 30 | 1020.7 |
| 20260501195802 | 65 | 242 | 3.0 | 10.0 | 0.00 | 0.00 | 0.00 | 30 | 1020.8 |
| 20260501195702 | 64 | 264 | 4.0 | 10.0 | 0.00 | 0.00 | 0.00 | 34 | 1020.7 |
| 20260501195602 | 64 | 251 | 3.0 | 10.0 | 0.00 | 0.00 | 0.00 | 32 | 1020.8 |
| 20260501195502 | 64 | 146 | 3.0 | 10.0 | 0.00 | 0.00 | 0.00 | 32 | 1020.8 |
| 20260501195401 | 65 | 223 | 4.0 | 10.0 | 0.00 | 0.00 | 0.00 | 31 | 1020.8 |
| 20260501195305 | 65 | 302 | 4.0 | 9.0 | 0.00 | 0.00 | 0.00 | 32 | 1020.8 |
| 20260501195240 | 65 | 236 | 4.0 | 9.0 | 0.00 | 0.00 | 0.00 | 32 | 1020.8 |
| 20260501195135 | 65 | 198 | 4.0 | 9.0 | 0.00 | 0.00 | 0.00 | 31 | 1020.8 |
| 20260501195030 | 65 | 250 | 4.0 | 9.0 | 0.00 | 0.00 | 0.00 | 34 | 1020.8 |
| 20260501194923 | 65 | 248 | 3.0 | 10.0 | 0.00 | 0.00 | 0.00 | 34 | 1020.7 |
| 20260501194710 | 65 | 238 | 3.0 | 9.0 | 0.00 | 0.00 | 0.00 | 35 | 1020.7 |
| 20260501194605 | 65 | 132 | 3.0 | 9.0 | 0.00 | 0.00 | 0.00 | 34 | 1020.8 |
| 20260501194502 | 65 | 242 | 3.0 | 9.0 | 0.00 | 0.00 | 0.00 | 34 | 1020.8 |
| 20260501194401 | 65 | 244 | 3.0 | 10.0 | 0.00 | 0.00 | 0.00 | 32 | 1020.8 |
| 20260501194302 | 65 | 131 | 3.0 | 9.0 | 0.00 | 0.00 | 0.00 | 33 | 1020.8 |
| 20260501194203 | 65 | 167 | 3.0 | 10.0 | 0.00 | 0.00 | 0.00 | 32 | 1020.9 |
| 20260501194102 | 65 | 266 | 3.0 | 10.0 | 0.00 | 0.00 | 0.00 | 32 | 1020.8 |
| 20260501194004 | 65 | 244 | 3.0 | 10.0 | 0.00 | 0.00 | 0.00 | 33 | 1020.8 |
| 20260501193902 | 65 | 164 | 3.0 | 10.0 | 0.00 | 0.00 | 0.00 | 35 | 1020.8 |
| 20260501193803 | 65 | 214 | 3.0 | 10.0 | 0.00 | 0.00 | 0.00 | 34 | 1020.9 |
| 20260501193502 | 65 | 254 | 3.0 | 10.0 | 0.00 | 0.00 | 0.00 | 35 | 1021.0 |
| 20260501193401 | 65 | 240 | 3.0 | 10.0 | 0.00 | 0.00 | 0.00 | 34 | 1020.9 |
| 20260501193302 | 65 | 246 | 3.0 | 7.0 | 0.00 | 0.00 | 0.00 | 34 | 1020.8 |
| 20260501193201 | 64 | 236 | 2.0 | 6.0 | 0.00 | 0.00 | 0.00 | 35 | 1021.0 |
| 20260501193102 | 64 | 168 | 2.0 | 7.0 | 0.00 | 0.00 | 0.00 | 35 | 1021.0 |
| 20260501193002 | 64 | 207 | 3.0 | 7.0 | 0.00 | 0.00 | 0.00 | 31 | 1021.0 |
| 20260501192801 | 64 | 191 | 3.0 | 7.0 | 0.00 | 0.00 | 0.00 | 32 | 1021.0 |
| 20260501192701 | 64 | 239 | 3.0 | 7.0 | 0.00 | 0.00 | 0.00 | 35 | 1020.9 |
| 20260501192501 | 64 | 145 | 3.0 | 7.0 | 0.00 | 0.00 | 0.00 | 34 | 1021.0 |
| 20260501192439 | 64 | 257 | 3.0 | 7.0 | 0.00 | 0.00 | 0.00 | 34 | 1021.0 |
| 20260501192332 | 64 | 257 | 3.0 | 10.0 | 0.00 | 0.00 | 0.00 | 34 | 1021.0 |
| 20260501192227 | 64 | 161 | 3.0 | 10.0 | 0.00 | 0.00 | 0.00 | 34 | 1021.0 |
| 20260501192121 | 64 | 227 | 3.0 | 10.0 | 0.00 | 0.00 | 0.00 | 37 | 1021.1 |
| 20260501192023 | 64 | 224 | 3.0 | 10.0 | 0.00 | 0.00 | 0.00 | 37 | 1021.1 |
| 20260501191715 | 64 | 236 | 4.0 | 10.0 | 0.00 | 0.00 | 0.00 | 34 | 1021.2 |
| 20260501191608 | 64 | 207 | 4.0 | 10.0 | 0.00 | 0.00 | 0.00 | 35 | 1021.1 |
| 20260501191503 | 64 | 257 | 3.0 | 8.0 | 0.00 | 0.00 | 0.00 | 36 | 1021.2 |
| 20260501191402 | 64 | 257 | 3.0 | 8.0 | 0.00 | 0.00 | 0.00 | 35 | 1021.2 |
| 20260501191302 | 64 | 151 | 3.0 | 8.0 | 0.00 | 0.00 | 0.00 | 35 | 1021.2 |
| 20260501191202 | 64 | 222 | 3.0 | 8.0 | 0.00 | 0.00 | 0.00 | 34 | 1021.1 |
| 20260501191101 | 64 | 217 | 3.0 | 9.0 | 0.00 | 0.00 | 0.00 | 33 | 1021.2 |
| 20260501191003 | 64 | 157 | 3.0 | 9.0 | 0.00 | 0.00 | 0.00 | 36 | 1021.3 |
| 20260501190901 | 63 | 213 | 3.0 | 9.0 | 0.00 | 0.00 | 0.00 | 34 | 1021.2 |
| 20260501190843 | 63 | 238 | 3.0 | 9.0 | 0.00 | 0.00 | 0.00 | 33 | 1021.2 |
| 20260501190737 | 63 | 240 | 3.0 | 9.0 | 0.00 | 0.00 | 0.00 | 32 | 1021.2 |
| 20260501190630 | 63 | 180 | 3.0 | 9.0 | 0.00 | 0.00 | 0.00 | 34 | 1021.3 |
| 20260501190525 | 63 | 159 | 3.0 | 9.0 | 0.00 | 0.00 | 0.00 | 34 | 1021.3 |
| 20260501190418 | 63 | 271 | 3.0 | 9.0 | 0.00 | 0.00 | 0.00 | 34 | 1021.4 |
| 20260501190313 | 64 | 238 | 3.0 | 9.0 | 0.00 | 0.00 | 0.00 | 33 | 1021.4 |
| 20260501190004 | 64 | 175 | 3.0 | 8.0 | 0.00 | 0.00 | 0.00 | 35 | 1021.4 |
| 20260501185902 | 64 | 238 | 4.0 | 8.0 | 0.00 | 0.00 | 0.00 | 36 | 1021.5 |
| 20260501185802 | 64 | 151 | 4.0 | 8.0 | 0.00 | 0.00 | 0.00 | 36 | 1021.5 |
| 20260501185702 | 64 | 222 | 4.0 | 10.0 | 0.00 | 0.00 | 0.00 | 33 | 1021.6 |
| 20260501185601 | 64 | 235 | 3.0 | 10.0 | 0.00 | 0.00 | 0.00 | 35 | 1021.6 |
| 20260501185405 | 64 | 238 | 3.0 | 11.0 | 0.00 | 0.00 | 0.00 | 35 | 1021.6 |
| 20260501185305 | 64 | 175 | 3.0 | 11.0 | 0.00 | 0.00 | 0.00 | 35 | 1021.6 |
| 20260501185201 | 64 | 196 | 3.0 | 11.0 | 0.00 | 0.00 | 0.00 | 32 | 1021.6 |
| 20260501185103 | 64 | 196 | 3.0 | 11.0 | 0.00 | 0.00 | 0.00 | 33 | 1021.6 |
| 20260501185003 | 64 | 161 | 3.0 | 11.0 | 0.00 | 0.00 | 0.00 | 31 | 1021.6 |
| 20260501184901 | 65 | 113 | 2.0 | 11.0 | 0.00 | 0.00 | 0.00 | 31 | 1021.6 |
| 20260501184802 | 65 | 190 | 2.0 | 11.0 | 0.00 | 0.00 | 0.00 | 34 | 1021.6 |
| 20260501184745 | 65 | 90 | 2.0 | 11.0 | 0.00 | 0.00 | 0.00 | 34 | 1021.6 |
| 20260501184639 | 65 | 244 | 2.0 | 11.0 | 0.00 | 0.00 | 0.00 | 33 | 1021.6 |
| 20260501184502 | 65 | 286 | 2.0 | 6.0 | 0.00 | 0.00 | 0.00 | 36 | 1021.7 |
| 20260501184403 | 65 | 151 | 2.0 | 7.0 | 0.00 | 0.00 | 0.00 | 33 | 1021.6 |
| 20260501184303 | 64 | 132 | 2.0 | 7.0 | 0.00 | 0.00 | 0.00 | 33 | 1021.6 |
| 20260501184202 | 64 | 248 | 3.0 | 7.0 | 0.00 | 0.00 | 0.00 | 34 | 1021.7 |
| 20260501184103 | 64 | 184 | 3.0 | 7.0 | 0.00 | 0.00 | 0.00 | 32 | 1021.6 |
| 20260501183901 | 64 | 242 | 2.0 | 7.0 | 0.00 | 0.00 | 0.00 | 30 | 1021.7 |
| 20260501183803 | 64 | 232 | 2.0 | 7.0 | 0.00 | 0.00 | 0.00 | 29 | 1021.7 |
| 20260501183722 | 64 | 184 | 2.0 | 7.0 | 0.00 | 0.00 | 0.00 | 29 | 1021.6 |
| 20260501183616 | 64 | 242 | 2.0 | 8.0 | 0.00 | 0.00 | 0.00 | 30 | 1021.7 |
| 20260501183511 | 64 | 185 | 2.0 | 4.0 | 0.00 | 0.00 | 0.00 | 29 | 1021.7 |
| 20260501183404 | 64 | 199 | 2.0 | 4.0 | 0.00 | 0.00 | 0.00 | 29 | 1021.6 |
| 20260501183302 | 64 | 188 | 2.0 | 4.0 | 0.00 | 0.00 | 0.00 | 30 | 1021.6 |
| 20260501183201 | 63 | 288 | 2.0 | 5.0 | 0.00 | 0.00 | 0.00 | 27 | 1021.6 |
| 20260501183102 | 64 | 146 | 2.0 | 5.0 | 0.00 | 0.00 | 0.00 | 27 | 1021.7 |
| 20260501183002 | 64 | 162 | 2.0 | 5.0 | 0.00 | 0.00 | 0.00 | 27 | 1021.7 |
| 20260501182902 | 63 | 288 | 2.0 | 5.0 | 0.00 | 0.00 | 0.00 | 29 | 1021.7 |
| 20260501182802 | 63 | 232 | 2.0 | 5.0 | 0.00 | 0.00 | 0.00 | 30 | 1021.7 |
| 20260501182542 | 63 | 128 | 3.0 | 6.0 | 0.00 | 0.00 | 0.00 | 31 | 1021.7 |
| 20260501182436 | 62 | 134 | 3.0 | 6.0 | 0.00 | 0.00 | 0.00 | 28 | 1021.7 |
| 20260501182330 | 62 | 325 | 3.0 | 7.0 | 0.00 | 0.00 | 0.00 | 28 | 1021.7 |
| 20260501182225 | 62 | 324 | 3.0 | 7.0 | 0.00 | 0.00 | 0.00 | 29 | 1021.7 |
| 20260501182118 | 62 | 252 | 3.0 | 8.0 | 0.00 | 0.00 | 0.00 | 26 | 1021.8 |
| 20260501182024 | 62 | 208 | 3.0 | 8.0 | 0.00 | 0.00 | 0.00 | 30 | 1021.8 |
| 20260501181906 | 63 | 228 | 3.0 | 8.0 | 0.00 | 0.00 | 0.00 | 31 | 1021.8 |
| 20260501181802 | 63 | 164 | 3.0 | 8.0 | 0.00 | 0.00 | 0.00 | 30 | 1021.8 |
| 20260501181702 | 63 | 254 | 3.0 | 8.0 | 0.00 | 0.00 | 0.00 | 29 | 1021.8 |
| 20260501181601 | 63 | 218 | 3.0 | 8.0 | 0.00 | 0.00 | 0.00 | 30 | 1021.7 |
| 20260501181502 | 63 | 206 | 3.0 | 8.0 | 0.00 | 0.00 | 0.00 | 30 | 1021.7 |
| 20260501181441 | 63 | 178 | 3.0 | 8.0 | 0.00 | 0.00 | 0.00 | 30 | 1021.7 |
| 20260501181228 | 63 | 161 | 3.0 | 7.0 | 0.00 | 0.00 | 0.00 | 33 | 1021.8 |
| 20260501181101 | 63 | 248 | 3.0 | 8.0 | 0.00 | 0.00 | 0.00 | 32 | 1021.9 |
| 20260501181002 | 63 | 257 | 3.0 | 8.0 | 0.00 | 0.00 | 0.00 | 31 | 1021.8 |
| 20260501180830 | 63 | 209 | 3.0 | 11.0 | 0.00 | 0.00 | 0.00 | 32 | 1021.8 |
| 20260501180724 | 63 | 275 | 3.0 | 11.0 | 0.00 | 0.00 | 0.00 | 31 | 1021.8 |
| 20260501180618 | 63 | 236 | 3.0 | 11.0 | 0.00 | 0.00 | 0.00 | 33 | 1021.8 |
| 20260501180512 | 63 | 204 | 3.0 | 11.0 | 0.00 | 0.00 | 0.00 | 31 | 1021.8 |
| 20260501180407 | 63 | 214 | 3.0 | 11.0 | 0.00 | 0.00 | 0.00 | 30 | 1021.8 |
| 20260501180302 | 64 | 171 | 2.0 | 11.0 | 0.00 | 0.00 | 0.00 | 32 | 1021.8 |
| 20260501180101 | 64 | 191 | 2.0 | 7.0 | 0.00 | 0.00 | 0.00 | 31 | 1021.8 |
| 20260501175902 | 64 | 284 | 2.0 | 7.0 | 0.00 | 0.00 | 0.00 | 30 | 1021.8 |
| 20260501175702 | 64 | 96 | 2.0 | 7.0 | 0.00 | 0.00 | 0.00 | 33 | 1021.8 |
| 20260501175528 | 64 | 171 | 2.0 | 7.0 | 0.00 | 0.00 | 0.00 | 31 | 1021.9 |
| 20260501175423 | 64 | 204 | 2.0 | 8.0 | 0.00 | 0.00 | 0.00 | 32 | 1021.9 |
| 20260501175316 | 64 | 173 | 2.0 | 8.0 | 0.00 | 0.00 | 0.00 | 31 | 1021.9 |
| 20260501175003 | 64 | 199 | 2.0 | 8.0 | 0.00 | 0.00 | 0.00 | 30 | 1021.9 |
| 20260501174803 | 63 | 155 | 2.0 | 8.0 | 0.00 | 0.00 | 0.00 | 32 | 1021.7 |
| 20260501174702 | 63 | 246 | 2.0 | 8.0 | 0.00 | 0.00 | 0.00 | 31 | 1021.8 |
| 20260501174641 | 63 | 263 | 2.0 | 8.0 | 0.00 | 0.00 | 0.00 | 30 | 1021.8 |
| 20260501174501 | 63 | 223 | 2.0 | 5.0 | 0.00 | 0.00 | 0.00 | 30 | 1021.8 |
| 20260501174445 | 63 | 150 | 2.0 | 5.0 | 0.00 | 0.00 | 0.00 | 30 | 1021.8 |
| 20260501174126 | 62 | 193 | 2.0 | 5.0 | 0.00 | 0.00 | 0.00 | 29 | 1021.7 |
| 20260501173915 | 62 | 311 | 2.0 | 5.0 | 0.00 | 0.00 | 0.00 | 28 | 1021.7 |
| 20260501173809 | 63 | 296 | 2.0 | 6.0 | 0.00 | 0.00 | 0.00 | 26 | 1021.7 |
| 20260501173702 | 63 | 319 | 2.0 | 5.0 | 0.00 | 0.00 | 0.00 | 25 | 1021.7 |
| 20260501173602 | 63 | 312 | 1.0 | 5.0 | 0.00 | 0.00 | 0.00 | 26 | 1021.7 |
| 20260501173403 | 63 | 57 | 1.0 | 4.0 | 0.00 | 0.00 | 0.00 | 31 | 1021.8 |
| 20260501173302 | 63 | 99 | 1.0 | 4.0 | 0.00 | 0.00 | 0.00 | 29 | 1021.7 |
| 20260501173037 | 63 | 69 | 1.0 | 7.0 | 0.00 | 0.00 | 0.00 | 28 | 1021.8 |
| 20260501172930 | 63 | 69 | 1.0 | 7.0 | 0.00 | 0.00 | 0.00 | 26 | 1021.8 |
| 20260501172800 | 62 | 118 | 2.0 | 7.0 | 0.00 | 0.00 | 0.00 | 26 | 1021.9 |
| 20260501172700 | 62 | 11 | 2.0 | 7.0 | 0.00 | 0.00 | 0.00 | 24 | 1021.9 |
| 20260501172641 | 62 | 96 | 2.0 | 7.0 | 0.00 | 0.00 | 0.00 | 24 | 1021.9 |
| 20260501172534 | 63 | 333 | 3.0 | 7.0 | 0.00 | 0.00 | 0.00 | 28 | 1021.8 |
| 20260501172322 | 63 | 65 | 2.0 | 8.0 | 0.00 | 0.00 | 0.00 | 26 | 1021.8 |
| 20260501172110 | 62 | 217 | 2.0 | 8.0 | 0.00 | 0.00 | 0.00 | 28 | 1021.8 |
| 20260501171902 | 62 | 111 | 3.0 | 8.0 | 0.00 | 0.00 | 0.00 | 26 | 1021.8 |
| 20260501171803 | 62 | 70 | 3.0 | 8.0 | 0.00 | 0.00 | 0.00 | 28 | 1021.8 |